<?xml version="1.0" encoding="UTF-8" standalone="no" ?>
<gpx xmlns="http://www.topografix.com/GPX/1/1" xmlns:xsi="http://www.w3.org/2001/XMLSchema-instance" xsi:schemaLocation="http://www.topografix.com/GPX/1/1 http://www.topografix.com/GPX/1/1/gpx.xsd" version="1.1" creator="VisuGPX - https://www.visugpx.com">
  <metadata>
    <name>IRATY PETRILARRE Raquette</name>
    <desc><![CDATA[Iraty Soule : Le circuit raquette de Petrilarre au départ du col d'Heguichouria (station de ski nordique d'Iraty-Soule)
Un itinéraire classique depuis ce col.]]></desc>
  </metadata>
  <trk>
    <name><![CDATA[IRATY PETRILARRE RAO]]></name>
    <trkseg>
      <trkpt lat="43.03678" lon="-1.03527">
        <ele>1362.81</ele>
        <time>2021-12-20T10:44:00Z</time>
      </trkpt>
      <trkpt lat="43.03679" lon="-1.03527">
        <ele>1362.81</ele>
        <time>2021-12-20T10:44:01Z</time>
      </trkpt>
      <trkpt lat="43.03679" lon="-1.03527">
        <ele>1324.76</ele>
        <time>2021-12-20T10:44:05Z</time>
      </trkpt>
      <trkpt lat="43.03679" lon="-1.03527">
        <ele>1324.76</ele>
        <time>2021-12-20T10:44:06Z</time>
      </trkpt>
      <trkpt lat="43.03673" lon="-1.03522">
        <ele>1324.77</ele>
        <time>2021-12-20T10:44:26Z</time>
      </trkpt>
      <trkpt lat="43.03673" lon="-1.03508">
        <ele>1326.12</ele>
        <time>2021-12-20T10:44:42Z</time>
      </trkpt>
      <trkpt lat="43.03673" lon="-1.03491">
        <ele>1326.27</ele>
        <time>2021-12-20T10:44:55Z</time>
      </trkpt>
      <trkpt lat="43.03667" lon="-1.03479">
        <ele>1325.94</ele>
        <time>2021-12-20T10:45:04Z</time>
      </trkpt>
      <trkpt lat="43.03654" lon="-1.03474">
        <ele>1326.35</ele>
        <time>2021-12-20T10:45:17Z</time>
      </trkpt>
      <trkpt lat="43.03652" lon="-1.03475">
        <ele>1328.12</ele>
        <time>2021-12-20T10:45:35Z</time>
      </trkpt>
      <trkpt lat="43.03652" lon="-1.03476">
        <ele>1321.97</ele>
        <time>2021-12-20T10:45:37Z</time>
      </trkpt>
      <trkpt lat="43.03652" lon="-1.03476">
        <ele>1326.81</ele>
        <time>2021-12-20T10:45:38Z</time>
      </trkpt>
      <trkpt lat="43.03653" lon="-1.03475">
        <ele>1326.66</ele>
        <time>2021-12-20T10:45:42Z</time>
      </trkpt>
      <trkpt lat="43.03655" lon="-1.03473">
        <ele>1326.36</ele>
        <time>2021-12-20T10:46:02Z</time>
      </trkpt>
      <trkpt lat="43.03656" lon="-1.03473">
        <ele>1326.03</ele>
        <time>2021-12-20T10:46:23Z</time>
      </trkpt>
      <trkpt lat="43.03656" lon="-1.03473">
        <ele>1325.97</ele>
        <time>2021-12-20T10:46:48Z</time>
      </trkpt>
      <trkpt lat="43.03655" lon="-1.03475">
        <ele>1325.68</ele>
        <time>2021-12-20T10:47:13Z</time>
      </trkpt>
      <trkpt lat="43.03653" lon="-1.0348">
        <ele>1325.69</ele>
        <time>2021-12-20T10:47:37Z</time>
      </trkpt>
      <trkpt lat="43.03655" lon="-1.03477">
        <ele>1325.6</ele>
        <time>2021-12-20T10:48:03Z</time>
      </trkpt>
      <trkpt lat="43.03656" lon="-1.03477">
        <ele>1325.5</ele>
        <time>2021-12-20T10:48:28Z</time>
      </trkpt>
      <trkpt lat="43.03658" lon="-1.03474">
        <ele>1325.19</ele>
        <time>2021-12-20T10:48:58Z</time>
      </trkpt>
      <trkpt lat="43.03653" lon="-1.03473">
        <ele>1324.74</ele>
        <time>2021-12-20T10:49:16Z</time>
      </trkpt>
      <trkpt lat="43.03638" lon="-1.03475">
        <ele>1325.52</ele>
        <time>2021-12-20T10:49:34Z</time>
      </trkpt>
      <trkpt lat="43.03631" lon="-1.03482">
        <ele>1326.47</ele>
        <time>2021-12-20T10:49:42Z</time>
      </trkpt>
      <trkpt lat="43.03624" lon="-1.03493">
        <ele>1327.01</ele>
        <time>2021-12-20T10:49:54Z</time>
      </trkpt>
      <trkpt lat="43.0362" lon="-1.03501">
        <ele>1327.96</ele>
        <time>2021-12-20T10:50:08Z</time>
      </trkpt>
      <trkpt lat="43.03616" lon="-1.03507">
        <ele>1328.45</ele>
        <time>2021-12-20T10:50:26Z</time>
      </trkpt>
      <trkpt lat="43.03611" lon="-1.03517">
        <ele>1328.95</ele>
        <time>2021-12-20T10:50:43Z</time>
      </trkpt>
      <trkpt lat="43.03605" lon="-1.03526">
        <ele>1330.1</ele>
        <time>2021-12-20T10:50:55Z</time>
      </trkpt>
      <trkpt lat="43.03603" lon="-1.03527">
        <ele>1330.32</ele>
        <time>2021-12-20T10:50:57Z</time>
      </trkpt>
      <trkpt lat="43.03597" lon="-1.03536">
        <ele>1331.38</ele>
        <time>2021-12-20T10:51:08Z</time>
      </trkpt>
      <trkpt lat="43.0359" lon="-1.0355">
        <ele>1332.64</ele>
        <time>2021-12-20T10:51:23Z</time>
      </trkpt>
      <trkpt lat="43.0358" lon="-1.0356">
        <ele>1334.13</ele>
        <time>2021-12-20T10:51:39Z</time>
      </trkpt>
      <trkpt lat="43.03575" lon="-1.03569">
        <ele>1335.54</ele>
        <time>2021-12-20T10:51:52Z</time>
      </trkpt>
      <trkpt lat="43.03566" lon="-1.03579">
        <ele>1337.32</ele>
        <time>2021-12-20T10:52:10Z</time>
      </trkpt>
      <trkpt lat="43.03559" lon="-1.03589">
        <ele>1338.77</ele>
        <time>2021-12-20T10:52:26Z</time>
      </trkpt>
      <trkpt lat="43.03551" lon="-1.03603">
        <ele>1340.35</ele>
        <time>2021-12-20T10:52:44Z</time>
      </trkpt>
      <trkpt lat="43.03545" lon="-1.03616">
        <ele>1341.81</ele>
        <time>2021-12-20T10:53:00Z</time>
      </trkpt>
      <trkpt lat="43.03539" lon="-1.03625">
        <ele>1342.95</ele>
        <time>2021-12-20T10:53:15Z</time>
      </trkpt>
      <trkpt lat="43.03532" lon="-1.03634">
        <ele>1344.64</ele>
        <time>2021-12-20T10:53:31Z</time>
      </trkpt>
      <trkpt lat="43.03525" lon="-1.03648">
        <ele>1346.35</ele>
        <time>2021-12-20T10:53:51Z</time>
      </trkpt>
      <trkpt lat="43.03518" lon="-1.03661">
        <ele>1347.56</ele>
        <time>2021-12-20T10:54:11Z</time>
      </trkpt>
      <trkpt lat="43.03513" lon="-1.03668">
        <ele>1348.61</ele>
        <time>2021-12-20T10:54:24Z</time>
      </trkpt>
      <trkpt lat="43.03507" lon="-1.03679">
        <ele>1349.95</ele>
        <time>2021-12-20T10:54:41Z</time>
      </trkpt>
      <trkpt lat="43.035" lon="-1.03692">
        <ele>1350.87</ele>
        <time>2021-12-20T10:54:58Z</time>
      </trkpt>
      <trkpt lat="43.03494" lon="-1.037">
        <ele>1351.98</ele>
        <time>2021-12-20T10:55:11Z</time>
      </trkpt>
      <trkpt lat="43.0349" lon="-1.03709">
        <ele>1352.75</ele>
        <time>2021-12-20T10:55:19Z</time>
      </trkpt>
      <trkpt lat="43.03481" lon="-1.03722">
        <ele>1353.78</ele>
        <time>2021-12-20T10:55:37Z</time>
      </trkpt>
      <trkpt lat="43.03474" lon="-1.0373">
        <ele>1355.4</ele>
        <time>2021-12-20T10:55:55Z</time>
      </trkpt>
      <trkpt lat="43.03467" lon="-1.03746">
        <ele>1357.25</ele>
        <time>2021-12-20T10:56:14Z</time>
      </trkpt>
      <trkpt lat="43.0346" lon="-1.03762">
        <ele>1358.55</ele>
        <time>2021-12-20T10:56:31Z</time>
      </trkpt>
      <trkpt lat="43.03451" lon="-1.03774">
        <ele>1360.24</ele>
        <time>2021-12-20T10:56:51Z</time>
      </trkpt>
      <trkpt lat="43.03443" lon="-1.03788">
        <ele>1361.9</ele>
        <time>2021-12-20T10:57:09Z</time>
      </trkpt>
      <trkpt lat="43.03435" lon="-1.03809">
        <ele>1363.21</ele>
        <time>2021-12-20T10:57:30Z</time>
      </trkpt>
      <trkpt lat="43.03424" lon="-1.03825">
        <ele>1364.92</ele>
        <time>2021-12-20T10:57:51Z</time>
      </trkpt>
      <trkpt lat="43.0341" lon="-1.03843">
        <ele>1366.96</ele>
        <time>2021-12-20T10:58:11Z</time>
      </trkpt>
      <trkpt lat="43.03399" lon="-1.03859">
        <ele>1368.01</ele>
        <time>2021-12-20T10:58:29Z</time>
      </trkpt>
      <trkpt lat="43.0339" lon="-1.0387">
        <ele>1369.63</ele>
        <time>2021-12-20T10:58:44Z</time>
      </trkpt>
      <trkpt lat="43.03383" lon="-1.03878">
        <ele>1370.75</ele>
        <time>2021-12-20T10:58:59Z</time>
      </trkpt>
      <trkpt lat="43.03371" lon="-1.03885">
        <ele>1371.57</ele>
        <time>2021-12-20T10:59:17Z</time>
      </trkpt>
      <trkpt lat="43.03361" lon="-1.03889">
        <ele>1373.15</ele>
        <time>2021-12-20T10:59:33Z</time>
      </trkpt>
      <trkpt lat="43.0336" lon="-1.03889">
        <ele>1373.11</ele>
        <time>2021-12-20T10:59:34Z</time>
      </trkpt>
      <trkpt lat="43.03348" lon="-1.03893">
        <ele>1374.57</ele>
        <time>2021-12-20T10:59:49Z</time>
      </trkpt>
      <trkpt lat="43.03348" lon="-1.03893">
        <ele>1374.59</ele>
        <time>2021-12-20T10:59:50Z</time>
      </trkpt>
      <trkpt lat="43.03341" lon="-1.03895">
        <ele>1375.28</ele>
        <time>2021-12-20T11:00:01Z</time>
      </trkpt>
      <trkpt lat="43.03338" lon="-1.03895">
        <ele>1375.28</ele>
        <time>2021-12-20T11:00:04Z</time>
      </trkpt>
      <trkpt lat="43.03329" lon="-1.03894">
        <ele>1376.67</ele>
        <time>2021-12-20T11:00:17Z</time>
      </trkpt>
      <trkpt lat="43.03325" lon="-1.03893">
        <ele>1376.7</ele>
        <time>2021-12-20T11:00:21Z</time>
      </trkpt>
      <trkpt lat="43.03318" lon="-1.03887">
        <ele>1376.87</ele>
        <time>2021-12-20T11:00:34Z</time>
      </trkpt>
      <trkpt lat="43.03314" lon="-1.0388">
        <ele>1377.33</ele>
        <time>2021-12-20T11:00:54Z</time>
      </trkpt>
      <trkpt lat="43.03311" lon="-1.03872">
        <ele>1377.38</ele>
        <time>2021-12-20T11:01:13Z</time>
      </trkpt>
      <trkpt lat="43.03305" lon="-1.03854">
        <ele>1378.24</ele>
        <time>2021-12-20T11:01:33Z</time>
      </trkpt>
      <trkpt lat="43.03295" lon="-1.03833">
        <ele>1379.14</ele>
        <time>2021-12-20T11:01:51Z</time>
      </trkpt>
      <trkpt lat="43.03288" lon="-1.03814">
        <ele>1379.05</ele>
        <time>2021-12-20T11:02:10Z</time>
      </trkpt>
      <trkpt lat="43.03286" lon="-1.03811">
        <ele>1378.91</ele>
        <time>2021-12-20T11:02:14Z</time>
      </trkpt>
      <trkpt lat="43.03279" lon="-1.03795">
        <ele>1379.59</ele>
        <time>2021-12-20T11:02:27Z</time>
      </trkpt>
      <trkpt lat="43.03273" lon="-1.03781">
        <ele>1380.04</ele>
        <time>2021-12-20T11:02:42Z</time>
      </trkpt>
      <trkpt lat="43.03268" lon="-1.03771">
        <ele>1380.13</ele>
        <time>2021-12-20T11:02:53Z</time>
      </trkpt>
      <trkpt lat="43.03265" lon="-1.03766">
        <ele>1380.15</ele>
        <time>2021-12-20T11:02:57Z</time>
      </trkpt>
      <trkpt lat="43.03257" lon="-1.0375">
        <ele>1380.37</ele>
        <time>2021-12-20T11:03:14Z</time>
      </trkpt>
      <trkpt lat="43.03255" lon="-1.03747">
        <ele>1381.05</ele>
        <time>2021-12-20T11:03:17Z</time>
      </trkpt>
      <trkpt lat="43.0325" lon="-1.03736">
        <ele>1380.74</ele>
        <time>2021-12-20T11:03:29Z</time>
      </trkpt>
      <trkpt lat="43.03246" lon="-1.03721">
        <ele>1380.99</ele>
        <time>2021-12-20T11:03:46Z</time>
      </trkpt>
      <trkpt lat="43.03244" lon="-1.03716">
        <ele>1381.54</ele>
        <time>2021-12-20T11:03:51Z</time>
      </trkpt>
      <trkpt lat="43.03237" lon="-1.03698">
        <ele>1380.72</ele>
        <time>2021-12-20T11:04:07Z</time>
      </trkpt>
      <trkpt lat="43.03237" lon="-1.03697">
        <ele>1380.63</ele>
        <time>2021-12-20T11:04:08Z</time>
      </trkpt>
      <trkpt lat="43.03229" lon="-1.03676">
        <ele>1382.11</ele>
        <time>2021-12-20T11:04:31Z</time>
      </trkpt>
      <trkpt lat="43.03224" lon="-1.03657">
        <ele>1382.72</ele>
        <time>2021-12-20T11:04:47Z</time>
      </trkpt>
      <trkpt lat="43.03221" lon="-1.03637">
        <ele>1383.6</ele>
        <time>2021-12-20T11:05:04Z</time>
      </trkpt>
      <trkpt lat="43.03216" lon="-1.0362">
        <ele>1383.89</ele>
        <time>2021-12-20T11:05:22Z</time>
      </trkpt>
      <trkpt lat="43.03211" lon="-1.03609">
        <ele>1384.51</ele>
        <time>2021-12-20T11:05:31Z</time>
      </trkpt>
      <trkpt lat="43.03201" lon="-1.03587">
        <ele>1384.86</ele>
        <time>2021-12-20T11:05:53Z</time>
      </trkpt>
      <trkpt lat="43.03189" lon="-1.03574">
        <ele>1384.83</ele>
        <time>2021-12-20T11:06:12Z</time>
      </trkpt>
      <trkpt lat="43.03172" lon="-1.03566">
        <ele>1385.27</ele>
        <time>2021-12-20T11:06:33Z</time>
      </trkpt>
      <trkpt lat="43.03158" lon="-1.03566">
        <ele>1385.18</ele>
        <time>2021-12-20T11:06:49Z</time>
      </trkpt>
      <trkpt lat="43.03156" lon="-1.03568">
        <ele>1385.16</ele>
        <time>2021-12-20T11:07:12Z</time>
      </trkpt>
      <trkpt lat="43.03146" lon="-1.03571">
        <ele>1385</ele>
        <time>2021-12-20T11:07:34Z</time>
      </trkpt>
      <trkpt lat="43.0313" lon="-1.03574">
        <ele>1383.9</ele>
        <time>2021-12-20T11:07:54Z</time>
      </trkpt>
      <trkpt lat="43.03117" lon="-1.0358">
        <ele>1382.83</ele>
        <time>2021-12-20T11:08:13Z</time>
      </trkpt>
      <trkpt lat="43.03104" lon="-1.03594">
        <ele>1381.7</ele>
        <time>2021-12-20T11:08:33Z</time>
      </trkpt>
      <trkpt lat="43.03094" lon="-1.03603">
        <ele>1381.17</ele>
        <time>2021-12-20T11:08:48Z</time>
      </trkpt>
      <trkpt lat="43.03093" lon="-1.03604">
        <ele>1381.3</ele>
        <time>2021-12-20T11:08:49Z</time>
      </trkpt>
      <trkpt lat="43.03084" lon="-1.03613">
        <ele>1380.94</ele>
        <time>2021-12-20T11:09:04Z</time>
      </trkpt>
      <trkpt lat="43.03069" lon="-1.03632">
        <ele>1380.47</ele>
        <time>2021-12-20T11:09:26Z</time>
      </trkpt>
      <trkpt lat="43.03058" lon="-1.03643">
        <ele>1380.13</ele>
        <time>2021-12-20T11:09:40Z</time>
      </trkpt>
      <trkpt lat="43.03055" lon="-1.03645">
        <ele>1380.28</ele>
        <time>2021-12-20T11:09:43Z</time>
      </trkpt>
      <trkpt lat="43.03051" lon="-1.0365">
        <ele>1380.27</ele>
        <time>2021-12-20T11:09:49Z</time>
      </trkpt>
      <trkpt lat="43.03048" lon="-1.03654">
        <ele>1380.07</ele>
        <time>2021-12-20T11:09:53Z</time>
      </trkpt>
      <trkpt lat="43.03045" lon="-1.03658">
        <ele>1379.77</ele>
        <time>2021-12-20T11:09:57Z</time>
      </trkpt>
      <trkpt lat="43.03044" lon="-1.03659">
        <ele>1379.92</ele>
        <time>2021-12-20T11:09:59Z</time>
      </trkpt>
      <trkpt lat="43.0304" lon="-1.0366">
        <ele>1379.73</ele>
        <time>2021-12-20T11:10:03Z</time>
      </trkpt>
      <trkpt lat="43.03035" lon="-1.03668">
        <ele>1379.32</ele>
        <time>2021-12-20T11:10:10Z</time>
      </trkpt>
      <trkpt lat="43.03033" lon="-1.0367">
        <ele>1378.94</ele>
        <time>2021-12-20T11:10:12Z</time>
      </trkpt>
      <trkpt lat="43.03031" lon="-1.03671">
        <ele>1378.73</ele>
        <time>2021-12-20T11:10:14Z</time>
      </trkpt>
      <trkpt lat="43.03026" lon="-1.03673">
        <ele>1378.74</ele>
        <time>2021-12-20T11:10:20Z</time>
      </trkpt>
      <trkpt lat="43.03024" lon="-1.03675">
        <ele>1378.78</ele>
        <time>2021-12-20T11:10:23Z</time>
      </trkpt>
      <trkpt lat="43.03017" lon="-1.03677">
        <ele>1378.55</ele>
        <time>2021-12-20T11:10:31Z</time>
      </trkpt>
      <trkpt lat="43.0301" lon="-1.03682">
        <ele>1378.24</ele>
        <time>2021-12-20T11:10:40Z</time>
      </trkpt>
      <trkpt lat="43.03005" lon="-1.03682">
        <ele>1378.35</ele>
        <time>2021-12-20T11:10:46Z</time>
      </trkpt>
      <trkpt lat="43.03003" lon="-1.03681">
        <ele>1378.03</ele>
        <time>2021-12-20T11:10:48Z</time>
      </trkpt>
      <trkpt lat="43.03" lon="-1.03683">
        <ele>1377.62</ele>
        <time>2021-12-20T11:10:51Z</time>
      </trkpt>
      <trkpt lat="43.02995" lon="-1.03684">
        <ele>1377.02</ele>
        <time>2021-12-20T11:10:56Z</time>
      </trkpt>
      <trkpt lat="43.02991" lon="-1.03682">
        <ele>1377.22</ele>
        <time>2021-12-20T11:11:00Z</time>
      </trkpt>
      <trkpt lat="43.02987" lon="-1.03684">
        <ele>1376.89</ele>
        <time>2021-12-20T11:11:07Z</time>
      </trkpt>
      <trkpt lat="43.02985" lon="-1.03685">
        <ele>1376.16</ele>
        <time>2021-12-20T11:11:10Z</time>
      </trkpt>
      <trkpt lat="43.02974" lon="-1.0368">
        <ele>1375.99</ele>
        <time>2021-12-20T11:11:23Z</time>
      </trkpt>
      <trkpt lat="43.02971" lon="-1.03678">
        <ele>1376.13</ele>
        <time>2021-12-20T11:11:26Z</time>
      </trkpt>
      <trkpt lat="43.02963" lon="-1.03665">
        <ele>1376.15</ele>
        <time>2021-12-20T11:11:39Z</time>
      </trkpt>
      <trkpt lat="43.02963" lon="-1.03664">
        <ele>1375.76</ele>
        <time>2021-12-20T11:11:40Z</time>
      </trkpt>
      <trkpt lat="43.0296" lon="-1.03659">
        <ele>1375.92</ele>
        <time>2021-12-20T11:11:45Z</time>
      </trkpt>
      <trkpt lat="43.02951" lon="-1.03649">
        <ele>1375.71</ele>
        <time>2021-12-20T11:11:58Z</time>
      </trkpt>
      <trkpt lat="43.02943" lon="-1.03641">
        <ele>1375.07</ele>
        <time>2021-12-20T11:12:09Z</time>
      </trkpt>
      <trkpt lat="43.02933" lon="-1.03639">
        <ele>1373.89</ele>
        <time>2021-12-20T11:12:24Z</time>
      </trkpt>
      <trkpt lat="43.02924" lon="-1.03636">
        <ele>1373.56</ele>
        <time>2021-12-20T11:12:42Z</time>
      </trkpt>
      <trkpt lat="43.02921" lon="-1.03635">
        <ele>1373.4</ele>
        <time>2021-12-20T11:12:45Z</time>
      </trkpt>
      <trkpt lat="43.02919" lon="-1.03635">
        <ele>1373.35</ele>
        <time>2021-12-20T11:12:47Z</time>
      </trkpt>
      <trkpt lat="43.02916" lon="-1.03632">
        <ele>1373</ele>
        <time>2021-12-20T11:12:51Z</time>
      </trkpt>
      <trkpt lat="43.02912" lon="-1.03632">
        <ele>1372.66</ele>
        <time>2021-12-20T11:12:55Z</time>
      </trkpt>
      <trkpt lat="43.0291" lon="-1.03631">
        <ele>1372.55</ele>
        <time>2021-12-20T11:12:57Z</time>
      </trkpt>
      <trkpt lat="43.02905" lon="-1.03631">
        <ele>1372.7</ele>
        <time>2021-12-20T11:13:03Z</time>
      </trkpt>
      <trkpt lat="43.02903" lon="-1.03631">
        <ele>1371.94</ele>
        <time>2021-12-20T11:13:05Z</time>
      </trkpt>
      <trkpt lat="43.02893" lon="-1.03636">
        <ele>1371.28</ele>
        <time>2021-12-20T11:13:18Z</time>
      </trkpt>
      <trkpt lat="43.02889" lon="-1.03638">
        <ele>1370.89</ele>
        <time>2021-12-20T11:13:22Z</time>
      </trkpt>
      <trkpt lat="43.02885" lon="-1.03642">
        <ele>1370.89</ele>
        <time>2021-12-20T11:13:28Z</time>
      </trkpt>
      <trkpt lat="43.02879" lon="-1.03649">
        <ele>1370.39</ele>
        <time>2021-12-20T11:13:37Z</time>
      </trkpt>
      <trkpt lat="43.02872" lon="-1.03663">
        <ele>1370</ele>
        <time>2021-12-20T11:13:51Z</time>
      </trkpt>
      <trkpt lat="43.02869" lon="-1.03669">
        <ele>1370.43</ele>
        <time>2021-12-20T11:13:57Z</time>
      </trkpt>
      <trkpt lat="43.02868" lon="-1.03688">
        <ele>1369.21</ele>
        <time>2021-12-20T11:14:11Z</time>
      </trkpt>
      <trkpt lat="43.02867" lon="-1.03702">
        <ele>1367.57</ele>
        <time>2021-12-20T11:14:23Z</time>
      </trkpt>
      <trkpt lat="43.02869" lon="-1.03717">
        <ele>1366.18</ele>
        <time>2021-12-20T11:14:37Z</time>
      </trkpt>
      <trkpt lat="43.02869" lon="-1.03718">
        <ele>1366.03</ele>
        <time>2021-12-20T11:14:39Z</time>
      </trkpt>
      <trkpt lat="43.0287" lon="-1.03738">
        <ele>1364.17</ele>
        <time>2021-12-20T11:14:55Z</time>
      </trkpt>
      <trkpt lat="43.02867" lon="-1.0375">
        <ele>1362.36</ele>
        <time>2021-12-20T11:15:08Z</time>
      </trkpt>
      <trkpt lat="43.02864" lon="-1.03757">
        <ele>1361.79</ele>
        <time>2021-12-20T11:15:15Z</time>
      </trkpt>
      <trkpt lat="43.02857" lon="-1.03769">
        <ele>1360.78</ele>
        <time>2021-12-20T11:15:29Z</time>
      </trkpt>
      <trkpt lat="43.02846" lon="-1.03777">
        <ele>1359.57</ele>
        <time>2021-12-20T11:15:43Z</time>
      </trkpt>
      <trkpt lat="43.02834" lon="-1.03784">
        <ele>1359.14</ele>
        <time>2021-12-20T11:15:58Z</time>
      </trkpt>
      <trkpt lat="43.02833" lon="-1.03784">
        <ele>1359.28</ele>
        <time>2021-12-20T11:16:01Z</time>
      </trkpt>
      <trkpt lat="43.02823" lon="-1.03792">
        <ele>1357.75</ele>
        <time>2021-12-20T11:16:19Z</time>
      </trkpt>
      <trkpt lat="43.02817" lon="-1.03823">
        <ele>1358.97</ele>
        <time>2021-12-20T11:16:39Z</time>
      </trkpt>
      <trkpt lat="43.02823" lon="-1.03842">
        <ele>1359.44</ele>
        <time>2021-12-20T11:16:55Z</time>
      </trkpt>
      <trkpt lat="43.02836" lon="-1.03851">
        <ele>1358.71</ele>
        <time>2021-12-20T11:17:13Z</time>
      </trkpt>
      <trkpt lat="43.02848" lon="-1.0386">
        <ele>1358.25</ele>
        <time>2021-12-20T11:17:32Z</time>
      </trkpt>
      <trkpt lat="43.02854" lon="-1.03864">
        <ele>1357.83</ele>
        <time>2021-12-20T11:17:50Z</time>
      </trkpt>
      <trkpt lat="43.02865" lon="-1.03876">
        <ele>1357.79</ele>
        <time>2021-12-20T11:18:07Z</time>
      </trkpt>
      <trkpt lat="43.0288" lon="-1.03897">
        <ele>1357.59</ele>
        <time>2021-12-20T11:18:27Z</time>
      </trkpt>
      <trkpt lat="43.02889" lon="-1.03917">
        <ele>1357.93</ele>
        <time>2021-12-20T11:18:47Z</time>
      </trkpt>
      <trkpt lat="43.02894" lon="-1.03939">
        <ele>1358.62</ele>
        <time>2021-12-20T11:19:09Z</time>
      </trkpt>
      <trkpt lat="43.02901" lon="-1.03954">
        <ele>1359.59</ele>
        <time>2021-12-20T11:19:24Z</time>
      </trkpt>
      <trkpt lat="43.02909" lon="-1.03969">
        <ele>1360.14</ele>
        <time>2021-12-20T11:19:42Z</time>
      </trkpt>
      <trkpt lat="43.02917" lon="-1.03987">
        <ele>1361.58</ele>
        <time>2021-12-20T11:20:02Z</time>
      </trkpt>
      <trkpt lat="43.02926" lon="-1.04005">
        <ele>1362.95</ele>
        <time>2021-12-20T11:20:22Z</time>
      </trkpt>
      <trkpt lat="43.02935" lon="-1.04025">
        <ele>1364.5</ele>
        <time>2021-12-20T11:20:42Z</time>
      </trkpt>
      <trkpt lat="43.02936" lon="-1.04041">
        <ele>1365.59</ele>
        <time>2021-12-20T11:20:58Z</time>
      </trkpt>
      <trkpt lat="43.02939" lon="-1.04052">
        <ele>1365.84</ele>
        <time>2021-12-20T11:21:11Z</time>
      </trkpt>
      <trkpt lat="43.02943" lon="-1.04063">
        <ele>1366.05</ele>
        <time>2021-12-20T11:21:25Z</time>
      </trkpt>
      <trkpt lat="43.02951" lon="-1.04079">
        <ele>1366.33</ele>
        <time>2021-12-20T11:21:45Z</time>
      </trkpt>
      <trkpt lat="43.02954" lon="-1.04098">
        <ele>1367.14</ele>
        <time>2021-12-20T11:22:04Z</time>
      </trkpt>
      <trkpt lat="43.0296" lon="-1.04114">
        <ele>1367.65</ele>
        <time>2021-12-20T11:22:21Z</time>
      </trkpt>
      <trkpt lat="43.02966" lon="-1.04132">
        <ele>1367.95</ele>
        <time>2021-12-20T11:22:38Z</time>
      </trkpt>
      <trkpt lat="43.02972" lon="-1.04148">
        <ele>1367.83</ele>
        <time>2021-12-20T11:22:55Z</time>
      </trkpt>
      <trkpt lat="43.02977" lon="-1.04169">
        <ele>1367.77</ele>
        <time>2021-12-20T11:23:15Z</time>
      </trkpt>
      <trkpt lat="43.02983" lon="-1.04182">
        <ele>1367.83</ele>
        <time>2021-12-20T11:23:32Z</time>
      </trkpt>
      <trkpt lat="43.02982" lon="-1.0419">
        <ele>1367.82</ele>
        <time>2021-12-20T11:23:39Z</time>
      </trkpt>
      <trkpt lat="43.02984" lon="-1.04209">
        <ele>1368.23</ele>
        <time>2021-12-20T11:23:57Z</time>
      </trkpt>
      <trkpt lat="43.02986" lon="-1.04231">
        <ele>1369.61</ele>
        <time>2021-12-20T11:24:18Z</time>
      </trkpt>
      <trkpt lat="43.02992" lon="-1.04248">
        <ele>1370.2</ele>
        <time>2021-12-20T11:24:34Z</time>
      </trkpt>
      <trkpt lat="43.02996" lon="-1.04269">
        <ele>1370.68</ele>
        <time>2021-12-20T11:24:53Z</time>
      </trkpt>
      <trkpt lat="43.03003" lon="-1.04289">
        <ele>1370.5</ele>
        <time>2021-12-20T11:25:13Z</time>
      </trkpt>
      <trkpt lat="43.03012" lon="-1.04308">
        <ele>1371.05</ele>
        <time>2021-12-20T11:25:34Z</time>
      </trkpt>
      <trkpt lat="43.03017" lon="-1.04331">
        <ele>1371.84</ele>
        <time>2021-12-20T11:25:54Z</time>
      </trkpt>
      <trkpt lat="43.0302" lon="-1.04343">
        <ele>1372.23</ele>
        <time>2021-12-20T11:26:05Z</time>
      </trkpt>
      <trkpt lat="43.03025" lon="-1.04359">
        <ele>1372.21</ele>
        <time>2021-12-20T11:26:21Z</time>
      </trkpt>
      <trkpt lat="43.03037" lon="-1.04377">
        <ele>1371.95</ele>
        <time>2021-12-20T11:26:42Z</time>
      </trkpt>
      <trkpt lat="43.03042" lon="-1.0439">
        <ele>1371.41</ele>
        <time>2021-12-20T11:26:56Z</time>
      </trkpt>
      <trkpt lat="43.03052" lon="-1.0441">
        <ele>1370.51</ele>
        <time>2021-12-20T11:27:17Z</time>
      </trkpt>
      <trkpt lat="43.03057" lon="-1.04425">
        <ele>1370.43</ele>
        <time>2021-12-20T11:27:32Z</time>
      </trkpt>
      <trkpt lat="43.03057" lon="-1.04429">
        <ele>1370.56</ele>
        <time>2021-12-20T11:27:35Z</time>
      </trkpt>
      <trkpt lat="43.03061" lon="-1.0445">
        <ele>1370.46</ele>
        <time>2021-12-20T11:27:54Z</time>
      </trkpt>
      <trkpt lat="43.03069" lon="-1.04471">
        <ele>1370.44</ele>
        <time>2021-12-20T11:28:14Z</time>
      </trkpt>
      <trkpt lat="43.03073" lon="-1.04491">
        <ele>1369.86</ele>
        <time>2021-12-20T11:28:32Z</time>
      </trkpt>
      <trkpt lat="43.03066" lon="-1.04503">
        <ele>1368.87</ele>
        <time>2021-12-20T11:28:50Z</time>
      </trkpt>
      <trkpt lat="43.03052" lon="-1.0452">
        <ele>1367.52</ele>
        <time>2021-12-20T11:29:12Z</time>
      </trkpt>
      <trkpt lat="43.03041" lon="-1.0454">
        <ele>1365.82</ele>
        <time>2021-12-20T11:29:36Z</time>
      </trkpt>
      <trkpt lat="43.03038" lon="-1.04547">
        <ele>1365.4</ele>
        <time>2021-12-20T11:29:42Z</time>
      </trkpt>
      <trkpt lat="43.03029" lon="-1.04564">
        <ele>1364.36</ele>
        <time>2021-12-20T11:30:01Z</time>
      </trkpt>
      <trkpt lat="43.03019" lon="-1.04579">
        <ele>1363.68</ele>
        <time>2021-12-20T11:30:19Z</time>
      </trkpt>
      <trkpt lat="43.03009" lon="-1.04592">
        <ele>1363.08</ele>
        <time>2021-12-20T11:30:36Z</time>
      </trkpt>
      <trkpt lat="43.03002" lon="-1.04601">
        <ele>1363.05</ele>
        <time>2021-12-20T11:30:57Z</time>
      </trkpt>
      <trkpt lat="43.02995" lon="-1.04603">
        <ele>1362.79</ele>
        <time>2021-12-20T11:31:17Z</time>
      </trkpt>
      <trkpt lat="43.02988" lon="-1.04619">
        <ele>1361.38</ele>
        <time>2021-12-20T11:31:37Z</time>
      </trkpt>
      <trkpt lat="43.02979" lon="-1.0463">
        <ele>1360.5</ele>
        <time>2021-12-20T11:31:55Z</time>
      </trkpt>
      <trkpt lat="43.02967" lon="-1.04643">
        <ele>1360.69</ele>
        <time>2021-12-20T11:32:13Z</time>
      </trkpt>
      <trkpt lat="43.0296" lon="-1.04646">
        <ele>1359.08</ele>
        <time>2021-12-20T11:32:36Z</time>
      </trkpt>
      <trkpt lat="43.02951" lon="-1.04653">
        <ele>1357.22</ele>
        <time>2021-12-20T11:32:57Z</time>
      </trkpt>
      <trkpt lat="43.02939" lon="-1.04671">
        <ele>1355.38</ele>
        <time>2021-12-20T11:33:20Z</time>
      </trkpt>
      <trkpt lat="43.02931" lon="-1.04689">
        <ele>1353.03</ele>
        <time>2021-12-20T11:33:41Z</time>
      </trkpt>
      <trkpt lat="43.02921" lon="-1.04711">
        <ele>1352.33</ele>
        <time>2021-12-20T11:34:00Z</time>
      </trkpt>
      <trkpt lat="43.02914" lon="-1.04732">
        <ele>1352.9</ele>
        <time>2021-12-20T11:34:14Z</time>
      </trkpt>
      <trkpt lat="43.02911" lon="-1.04737">
        <ele>1353.46</ele>
        <time>2021-12-20T11:34:20Z</time>
      </trkpt>
      <trkpt lat="43.0291" lon="-1.04739">
        <ele>1353.47</ele>
        <time>2021-12-20T11:34:22Z</time>
      </trkpt>
      <trkpt lat="43.02903" lon="-1.04756">
        <ele>1353.71</ele>
        <time>2021-12-20T11:34:39Z</time>
      </trkpt>
      <trkpt lat="43.02896" lon="-1.04768">
        <ele>1353.51</ele>
        <time>2021-12-20T11:34:57Z</time>
      </trkpt>
      <trkpt lat="43.02893" lon="-1.04776">
        <ele>1352.71</ele>
        <time>2021-12-20T11:35:10Z</time>
      </trkpt>
      <trkpt lat="43.02888" lon="-1.04801">
        <ele>1351.4</ele>
        <time>2021-12-20T11:35:32Z</time>
      </trkpt>
      <trkpt lat="43.02881" lon="-1.04817">
        <ele>1350.18</ele>
        <time>2021-12-20T11:35:54Z</time>
      </trkpt>
      <trkpt lat="43.0287" lon="-1.04837">
        <ele>1349.88</ele>
        <time>2021-12-20T11:36:13Z</time>
      </trkpt>
      <trkpt lat="43.02861" lon="-1.04873">
        <ele>1350.53</ele>
        <time>2021-12-20T11:36:28Z</time>
      </trkpt>
      <trkpt lat="43.02855" lon="-1.0489">
        <ele>1350.79</ele>
        <time>2021-12-20T11:36:45Z</time>
      </trkpt>
      <trkpt lat="43.02846" lon="-1.049">
        <ele>1352.18</ele>
        <time>2021-12-20T11:37:03Z</time>
      </trkpt>
      <trkpt lat="43.02837" lon="-1.04916">
        <ele>1353.54</ele>
        <time>2021-12-20T11:37:22Z</time>
      </trkpt>
      <trkpt lat="43.02835" lon="-1.04931">
        <ele>1354.58</ele>
        <time>2021-12-20T11:37:39Z</time>
      </trkpt>
      <trkpt lat="43.02836" lon="-1.04951">
        <ele>1354.19</ele>
        <time>2021-12-20T11:37:54Z</time>
      </trkpt>
      <trkpt lat="43.02841" lon="-1.04966">
        <ele>1354.05</ele>
        <time>2021-12-20T11:38:07Z</time>
      </trkpt>
      <trkpt lat="43.02843" lon="-1.0498">
        <ele>1354.46</ele>
        <time>2021-12-20T11:38:20Z</time>
      </trkpt>
      <trkpt lat="43.02841" lon="-1.04998">
        <ele>1354.13</ele>
        <time>2021-12-20T11:38:39Z</time>
      </trkpt>
      <trkpt lat="43.02846" lon="-1.05019">
        <ele>1354.99</ele>
        <time>2021-12-20T11:38:59Z</time>
      </trkpt>
      <trkpt lat="43.02847" lon="-1.05021">
        <ele>1355.13</ele>
        <time>2021-12-20T11:39:01Z</time>
      </trkpt>
      <trkpt lat="43.02854" lon="-1.05033">
        <ele>1356.04</ele>
        <time>2021-12-20T11:39:19Z</time>
      </trkpt>
      <trkpt lat="43.02857" lon="-1.05047">
        <ele>1356.72</ele>
        <time>2021-12-20T11:39:34Z</time>
      </trkpt>
      <trkpt lat="43.02861" lon="-1.05061">
        <ele>1357.13</ele>
        <time>2021-12-20T11:39:51Z</time>
      </trkpt>
      <trkpt lat="43.02866" lon="-1.05073">
        <ele>1358.12</ele>
        <time>2021-12-20T11:40:08Z</time>
      </trkpt>
      <trkpt lat="43.02871" lon="-1.05083">
        <ele>1358.63</ele>
        <time>2021-12-20T11:40:20Z</time>
      </trkpt>
      <trkpt lat="43.02873" lon="-1.05085">
        <ele>1358.7</ele>
        <time>2021-12-20T11:40:22Z</time>
      </trkpt>
      <trkpt lat="43.0288" lon="-1.0509">
        <ele>1359.29</ele>
        <time>2021-12-20T11:40:32Z</time>
      </trkpt>
      <trkpt lat="43.02883" lon="-1.05092">
        <ele>1359.33</ele>
        <time>2021-12-20T11:40:35Z</time>
      </trkpt>
      <trkpt lat="43.02889" lon="-1.05097">
        <ele>1359.68</ele>
        <time>2021-12-20T11:40:45Z</time>
      </trkpt>
      <trkpt lat="43.02891" lon="-1.05099">
        <ele>1359.96</ele>
        <time>2021-12-20T11:40:47Z</time>
      </trkpt>
      <trkpt lat="43.02902" lon="-1.05106">
        <ele>1360.25</ele>
        <time>2021-12-20T11:41:03Z</time>
      </trkpt>
      <trkpt lat="43.02911" lon="-1.0511">
        <ele>1360.4</ele>
        <time>2021-12-20T11:41:19Z</time>
      </trkpt>
      <trkpt lat="43.02918" lon="-1.05119">
        <ele>1360.86</ele>
        <time>2021-12-20T11:41:37Z</time>
      </trkpt>
      <trkpt lat="43.02931" lon="-1.05128">
        <ele>1361.37</ele>
        <time>2021-12-20T11:41:56Z</time>
      </trkpt>
      <trkpt lat="43.0295" lon="-1.05134">
        <ele>1361.83</ele>
        <time>2021-12-20T11:42:15Z</time>
      </trkpt>
      <trkpt lat="43.0296" lon="-1.05144">
        <ele>1362.7</ele>
        <time>2021-12-20T11:42:35Z</time>
      </trkpt>
      <trkpt lat="43.02959" lon="-1.05146">
        <ele>1362.22</ele>
        <time>2021-12-20T11:42:44Z</time>
      </trkpt>
      <trkpt lat="43.02957" lon="-1.0514">
        <ele>1362.22</ele>
        <time>2021-12-20T11:43:11Z</time>
      </trkpt>
      <trkpt lat="43.02957" lon="-1.05142">
        <ele>1361.15</ele>
        <time>2021-12-20T11:43:35Z</time>
      </trkpt>
      <trkpt lat="43.02957" lon="-1.05144">
        <ele>1361.73</ele>
        <time>2021-12-20T11:43:58Z</time>
      </trkpt>
      <trkpt lat="43.02957" lon="-1.05142">
        <ele>1362.01</ele>
        <time>2021-12-20T11:44:20Z</time>
      </trkpt>
      <trkpt lat="43.02962" lon="-1.05143">
        <ele>1362.46</ele>
        <time>2021-12-20T11:44:43Z</time>
      </trkpt>
      <trkpt lat="43.02969" lon="-1.05151">
        <ele>1362.37</ele>
        <time>2021-12-20T11:44:58Z</time>
      </trkpt>
      <trkpt lat="43.02975" lon="-1.05162">
        <ele>1362.3</ele>
        <time>2021-12-20T11:45:14Z</time>
      </trkpt>
      <trkpt lat="43.02988" lon="-1.05183">
        <ele>1363.96</ele>
        <time>2021-12-20T11:45:35Z</time>
      </trkpt>
      <trkpt lat="43.02994" lon="-1.05203">
        <ele>1366.11</ele>
        <time>2021-12-20T11:45:55Z</time>
      </trkpt>
      <trkpt lat="43.03" lon="-1.05219">
        <ele>1368.15</ele>
        <time>2021-12-20T11:46:15Z</time>
      </trkpt>
      <trkpt lat="43.03005" lon="-1.05233">
        <ele>1369.91</ele>
        <time>2021-12-20T11:46:34Z</time>
      </trkpt>
      <trkpt lat="43.03013" lon="-1.05244">
        <ele>1371.39</ele>
        <time>2021-12-20T11:46:50Z</time>
      </trkpt>
      <trkpt lat="43.03016" lon="-1.05262">
        <ele>1372.76</ele>
        <time>2021-12-20T11:47:09Z</time>
      </trkpt>
      <trkpt lat="43.03017" lon="-1.05278">
        <ele>1373.64</ele>
        <time>2021-12-20T11:47:26Z</time>
      </trkpt>
      <trkpt lat="43.03018" lon="-1.05293">
        <ele>1374.44</ele>
        <time>2021-12-20T11:47:43Z</time>
      </trkpt>
      <trkpt lat="43.03022" lon="-1.05312">
        <ele>1375.68</ele>
        <time>2021-12-20T11:48:02Z</time>
      </trkpt>
      <trkpt lat="43.03023" lon="-1.05333">
        <ele>1376.72</ele>
        <time>2021-12-20T11:48:21Z</time>
      </trkpt>
      <trkpt lat="43.03029" lon="-1.05353">
        <ele>1377.73</ele>
        <time>2021-12-20T11:48:40Z</time>
      </trkpt>
      <trkpt lat="43.03037" lon="-1.05369">
        <ele>1379.26</ele>
        <time>2021-12-20T11:48:59Z</time>
      </trkpt>
      <trkpt lat="43.03039" lon="-1.05372">
        <ele>1379.43</ele>
        <time>2021-12-20T11:49:02Z</time>
      </trkpt>
      <trkpt lat="43.03045" lon="-1.05386">
        <ele>1380.36</ele>
        <time>2021-12-20T11:49:17Z</time>
      </trkpt>
      <trkpt lat="43.03051" lon="-1.05405">
        <ele>1380.59</ele>
        <time>2021-12-20T11:49:37Z</time>
      </trkpt>
      <trkpt lat="43.03054" lon="-1.05423">
        <ele>1381.17</ele>
        <time>2021-12-20T11:49:51Z</time>
      </trkpt>
      <trkpt lat="43.03058" lon="-1.05446">
        <ele>1380.55</ele>
        <time>2021-12-20T11:50:12Z</time>
      </trkpt>
      <trkpt lat="43.03054" lon="-1.05468">
        <ele>1380.05</ele>
        <time>2021-12-20T11:50:31Z</time>
      </trkpt>
      <trkpt lat="43.03047" lon="-1.05489">
        <ele>1379.92</ele>
        <time>2021-12-20T11:50:50Z</time>
      </trkpt>
      <trkpt lat="43.03046" lon="-1.05504">
        <ele>1379.45</ele>
        <time>2021-12-20T11:51:06Z</time>
      </trkpt>
      <trkpt lat="43.03045" lon="-1.05521">
        <ele>1379.04</ele>
        <time>2021-12-20T11:51:23Z</time>
      </trkpt>
      <trkpt lat="43.0304" lon="-1.05541">
        <ele>1378.7</ele>
        <time>2021-12-20T11:51:42Z</time>
      </trkpt>
      <trkpt lat="43.03036" lon="-1.05563">
        <ele>1378.88</ele>
        <time>2021-12-20T11:52:02Z</time>
      </trkpt>
      <trkpt lat="43.03035" lon="-1.05586">
        <ele>1378.87</ele>
        <time>2021-12-20T11:52:21Z</time>
      </trkpt>
      <trkpt lat="43.03031" lon="-1.05611">
        <ele>1378.58</ele>
        <time>2021-12-20T11:52:42Z</time>
      </trkpt>
      <trkpt lat="43.03029" lon="-1.0563">
        <ele>1377.97</ele>
        <time>2021-12-20T11:53:00Z</time>
      </trkpt>
      <trkpt lat="43.03026" lon="-1.05651">
        <ele>1377.36</ele>
        <time>2021-12-20T11:53:19Z</time>
      </trkpt>
      <trkpt lat="43.03021" lon="-1.05666">
        <ele>1376.97</ele>
        <time>2021-12-20T11:53:36Z</time>
      </trkpt>
      <trkpt lat="43.03011" lon="-1.05688">
        <ele>1376.97</ele>
        <time>2021-12-20T11:53:55Z</time>
      </trkpt>
      <trkpt lat="43.03006" lon="-1.05703">
        <ele>1376.42</ele>
        <time>2021-12-20T11:54:13Z</time>
      </trkpt>
      <trkpt lat="43.02997" lon="-1.05721">
        <ele>1375.27</ele>
        <time>2021-12-20T11:54:34Z</time>
      </trkpt>
      <trkpt lat="43.02986" lon="-1.05746">
        <ele>1374.44</ele>
        <time>2021-12-20T11:54:55Z</time>
      </trkpt>
      <trkpt lat="43.02976" lon="-1.05768">
        <ele>1373.8</ele>
        <time>2021-12-20T11:55:17Z</time>
      </trkpt>
      <trkpt lat="43.02967" lon="-1.05785">
        <ele>1374.3</ele>
        <time>2021-12-20T11:55:31Z</time>
      </trkpt>
      <trkpt lat="43.0296" lon="-1.05798">
        <ele>1374.95</ele>
        <time>2021-12-20T11:55:50Z</time>
      </trkpt>
      <trkpt lat="43.02953" lon="-1.05813">
        <ele>1374.85</ele>
        <time>2021-12-20T11:56:09Z</time>
      </trkpt>
      <trkpt lat="43.02945" lon="-1.05826">
        <ele>1374.52</ele>
        <time>2021-12-20T11:56:27Z</time>
      </trkpt>
      <trkpt lat="43.02937" lon="-1.05835">
        <ele>1375.02</ele>
        <time>2021-12-20T11:56:47Z</time>
      </trkpt>
      <trkpt lat="43.02932" lon="-1.05839">
        <ele>1374.93</ele>
        <time>2021-12-20T11:57:13Z</time>
      </trkpt>
      <trkpt lat="43.0292" lon="-1.05864">
        <ele>1374.72</ele>
        <time>2021-12-20T11:57:30Z</time>
      </trkpt>
      <trkpt lat="43.02913" lon="-1.05881">
        <ele>1374.61</ele>
        <time>2021-12-20T11:57:50Z</time>
      </trkpt>
      <trkpt lat="43.02908" lon="-1.05891">
        <ele>1374.22</ele>
        <time>2021-12-20T11:58:00Z</time>
      </trkpt>
      <trkpt lat="43.02897" lon="-1.05906">
        <ele>1374.84</ele>
        <time>2021-12-20T11:58:18Z</time>
      </trkpt>
      <trkpt lat="43.02886" lon="-1.05922">
        <ele>1375.18</ele>
        <time>2021-12-20T11:58:35Z</time>
      </trkpt>
      <trkpt lat="43.02881" lon="-1.05934">
        <ele>1375.17</ele>
        <time>2021-12-20T11:58:52Z</time>
      </trkpt>
      <trkpt lat="43.02877" lon="-1.05953">
        <ele>1373.93</ele>
        <time>2021-12-20T11:59:12Z</time>
      </trkpt>
      <trkpt lat="43.02874" lon="-1.05968">
        <ele>1373.53</ele>
        <time>2021-12-20T11:59:29Z</time>
      </trkpt>
      <trkpt lat="43.02873" lon="-1.05982">
        <ele>1372.43</ele>
        <time>2021-12-20T11:59:44Z</time>
      </trkpt>
      <trkpt lat="43.02872" lon="-1.05995">
        <ele>1370.42</ele>
        <time>2021-12-20T12:00:04Z</time>
      </trkpt>
      <trkpt lat="43.02868" lon="-1.06017">
        <ele>1370.78</ele>
        <time>2021-12-20T12:00:23Z</time>
      </trkpt>
      <trkpt lat="43.02864" lon="-1.06034">
        <ele>1370.51</ele>
        <time>2021-12-20T12:00:42Z</time>
      </trkpt>
      <trkpt lat="43.02861" lon="-1.06051">
        <ele>1369.28</ele>
        <time>2021-12-20T12:01:02Z</time>
      </trkpt>
      <trkpt lat="43.02854" lon="-1.06073">
        <ele>1369.03</ele>
        <time>2021-12-20T12:01:21Z</time>
      </trkpt>
      <trkpt lat="43.02849" lon="-1.06079">
        <ele>1369.74</ele>
        <time>2021-12-20T12:01:32Z</time>
      </trkpt>
      <trkpt lat="43.02845" lon="-1.06085">
        <ele>1369.52</ele>
        <time>2021-12-20T12:01:53Z</time>
      </trkpt>
      <trkpt lat="43.02839" lon="-1.06104">
        <ele>1369.61</ele>
        <time>2021-12-20T12:02:13Z</time>
      </trkpt>
      <trkpt lat="43.02836" lon="-1.06119">
        <ele>1367.89</ele>
        <time>2021-12-20T12:02:31Z</time>
      </trkpt>
      <trkpt lat="43.02838" lon="-1.06135">
        <ele>1366.81</ele>
        <time>2021-12-20T12:02:51Z</time>
      </trkpt>
      <trkpt lat="43.02842" lon="-1.06157">
        <ele>1366.31</ele>
        <time>2021-12-20T12:03:11Z</time>
      </trkpt>
      <trkpt lat="43.02848" lon="-1.0618">
        <ele>1366.09</ele>
        <time>2021-12-20T12:03:31Z</time>
      </trkpt>
      <trkpt lat="43.02854" lon="-1.06196">
        <ele>1366.53</ele>
        <time>2021-12-20T12:03:51Z</time>
      </trkpt>
      <trkpt lat="43.02855" lon="-1.06211">
        <ele>1366.51</ele>
        <time>2021-12-20T12:04:13Z</time>
      </trkpt>
      <trkpt lat="43.02851" lon="-1.0622">
        <ele>1366.73</ele>
        <time>2021-12-20T12:04:42Z</time>
      </trkpt>
      <trkpt lat="43.02851" lon="-1.06225">
        <ele>1366.15</ele>
        <time>2021-12-20T12:05:10Z</time>
      </trkpt>
      <trkpt lat="43.02847" lon="-1.06216">
        <ele>1366.09</ele>
        <time>2021-12-20T12:05:43Z</time>
      </trkpt>
      <trkpt lat="43.02845" lon="-1.06214">
        <ele>1366.55</ele>
        <time>2021-12-20T12:06:11Z</time>
      </trkpt>
      <trkpt lat="43.02841" lon="-1.06207">
        <ele>1366.47</ele>
        <time>2021-12-20T12:06:25Z</time>
      </trkpt>
      <trkpt lat="43.02847" lon="-1.06224">
        <ele>1366.6</ele>
        <time>2021-12-20T12:06:49Z</time>
      </trkpt>
      <trkpt lat="43.02852" lon="-1.0624">
        <ele>1366.86</ele>
        <time>2021-12-20T12:07:09Z</time>
      </trkpt>
      <trkpt lat="43.02855" lon="-1.06254">
        <ele>1366.54</ele>
        <time>2021-12-20T12:07:29Z</time>
      </trkpt>
      <trkpt lat="43.02857" lon="-1.0627">
        <ele>1365.77</ele>
        <time>2021-12-20T12:07:53Z</time>
      </trkpt>
      <trkpt lat="43.02863" lon="-1.0629">
        <ele>1367.13</ele>
        <time>2021-12-20T12:08:12Z</time>
      </trkpt>
      <trkpt lat="43.02869" lon="-1.06313">
        <ele>1367.18</ele>
        <time>2021-12-20T12:08:34Z</time>
      </trkpt>
      <trkpt lat="43.02863" lon="-1.06314">
        <ele>1367.72</ele>
        <time>2021-12-20T12:09:04Z</time>
      </trkpt>
      <trkpt lat="43.0287" lon="-1.06327">
        <ele>1367.82</ele>
        <time>2021-12-20T12:09:22Z</time>
      </trkpt>
      <trkpt lat="43.0288" lon="-1.06351">
        <ele>1368.35</ele>
        <time>2021-12-20T12:09:43Z</time>
      </trkpt>
      <trkpt lat="43.02888" lon="-1.06372">
        <ele>1369.5</ele>
        <time>2021-12-20T12:10:03Z</time>
      </trkpt>
      <trkpt lat="43.02895" lon="-1.06393">
        <ele>1371.65</ele>
        <time>2021-12-20T12:10:25Z</time>
      </trkpt>
      <trkpt lat="43.02894" lon="-1.06411">
        <ele>1372.92</ele>
        <time>2021-12-20T12:10:46Z</time>
      </trkpt>
      <trkpt lat="43.02889" lon="-1.06427">
        <ele>1373.1</ele>
        <time>2021-12-20T12:11:07Z</time>
      </trkpt>
      <trkpt lat="43.02891" lon="-1.06443">
        <ele>1373.81</ele>
        <time>2021-12-20T12:11:27Z</time>
      </trkpt>
      <trkpt lat="43.02896" lon="-1.0646">
        <ele>1373.73</ele>
        <time>2021-12-20T12:11:44Z</time>
      </trkpt>
      <trkpt lat="43.02903" lon="-1.06482">
        <ele>1371.94</ele>
        <time>2021-12-20T12:12:08Z</time>
      </trkpt>
      <trkpt lat="43.02915" lon="-1.06475">
        <ele>1372.58</ele>
        <time>2021-12-20T12:12:27Z</time>
      </trkpt>
      <trkpt lat="43.02919" lon="-1.0647">
        <ele>1372.59</ele>
        <time>2021-12-20T12:12:32Z</time>
      </trkpt>
      <trkpt lat="43.02924" lon="-1.06462">
        <ele>1372</ele>
        <time>2021-12-20T12:12:48Z</time>
      </trkpt>
      <trkpt lat="43.0293" lon="-1.06451">
        <ele>1370.79</ele>
        <time>2021-12-20T12:13:04Z</time>
      </trkpt>
      <trkpt lat="43.02931" lon="-1.06449">
        <ele>1371.08</ele>
        <time>2021-12-20T12:13:11Z</time>
      </trkpt>
      <trkpt lat="43.02936" lon="-1.06434">
        <ele>1371.3</ele>
        <time>2021-12-20T12:13:30Z</time>
      </trkpt>
      <trkpt lat="43.0294" lon="-1.06413">
        <ele>1371.04</ele>
        <time>2021-12-20T12:13:52Z</time>
      </trkpt>
      <trkpt lat="43.02935" lon="-1.06391">
        <ele>1370.57</ele>
        <time>2021-12-20T12:14:10Z</time>
      </trkpt>
      <trkpt lat="43.02929" lon="-1.06376">
        <ele>1368.86</ele>
        <time>2021-12-20T12:14:30Z</time>
      </trkpt>
      <trkpt lat="43.02925" lon="-1.06353">
        <ele>1366.51</ele>
        <time>2021-12-20T12:14:50Z</time>
      </trkpt>
      <trkpt lat="43.02925" lon="-1.06328">
        <ele>1365.42</ele>
        <time>2021-12-20T12:15:05Z</time>
      </trkpt>
      <trkpt lat="43.02932" lon="-1.06317">
        <ele>1363.66</ele>
        <time>2021-12-20T12:15:24Z</time>
      </trkpt>
      <trkpt lat="43.02937" lon="-1.06311">
        <ele>1363.26</ele>
        <time>2021-12-20T12:15:39Z</time>
      </trkpt>
      <trkpt lat="43.02941" lon="-1.0629">
        <ele>1363.12</ele>
        <time>2021-12-20T12:16:06Z</time>
      </trkpt>
      <trkpt lat="43.02952" lon="-1.06302">
        <ele>1361.41</ele>
        <time>2021-12-20T12:16:25Z</time>
      </trkpt>
      <trkpt lat="43.02961" lon="-1.06302">
        <ele>1360.29</ele>
        <time>2021-12-20T12:16:45Z</time>
      </trkpt>
      <trkpt lat="43.02978" lon="-1.06298">
        <ele>1358.5</ele>
        <time>2021-12-20T12:17:04Z</time>
      </trkpt>
      <trkpt lat="43.02979" lon="-1.06279">
        <ele>1357.83</ele>
        <time>2021-12-20T12:17:23Z</time>
      </trkpt>
      <trkpt lat="43.02973" lon="-1.06268">
        <ele>1358.43</ele>
        <time>2021-12-20T12:17:41Z</time>
      </trkpt>
      <trkpt lat="43.02969" lon="-1.06254">
        <ele>1358.79</ele>
        <time>2021-12-20T12:17:59Z</time>
      </trkpt>
      <trkpt lat="43.0296" lon="-1.0624">
        <ele>1357.97</ele>
        <time>2021-12-20T12:18:19Z</time>
      </trkpt>
      <trkpt lat="43.02956" lon="-1.06229">
        <ele>1357.96</ele>
        <time>2021-12-20T12:18:32Z</time>
      </trkpt>
      <trkpt lat="43.02949" lon="-1.06214">
        <ele>1357.11</ele>
        <time>2021-12-20T12:18:49Z</time>
      </trkpt>
      <trkpt lat="43.02942" lon="-1.06197">
        <ele>1355.7</ele>
        <time>2021-12-20T12:19:09Z</time>
      </trkpt>
      <trkpt lat="43.02939" lon="-1.06184">
        <ele>1355.24</ele>
        <time>2021-12-20T12:19:20Z</time>
      </trkpt>
      <trkpt lat="43.02935" lon="-1.06165">
        <ele>1355.17</ele>
        <time>2021-12-20T12:19:34Z</time>
      </trkpt>
      <trkpt lat="43.02933" lon="-1.06147">
        <ele>1354.78</ele>
        <time>2021-12-20T12:19:49Z</time>
      </trkpt>
      <trkpt lat="43.02932" lon="-1.06127">
        <ele>1353.87</ele>
        <time>2021-12-20T12:20:06Z</time>
      </trkpt>
      <trkpt lat="43.02932" lon="-1.06108">
        <ele>1353.33</ele>
        <time>2021-12-20T12:20:22Z</time>
      </trkpt>
      <trkpt lat="43.02934" lon="-1.06086">
        <ele>1352.48</ele>
        <time>2021-12-20T12:20:40Z</time>
      </trkpt>
      <trkpt lat="43.02936" lon="-1.06068">
        <ele>1351.49</ele>
        <time>2021-12-20T12:20:56Z</time>
      </trkpt>
      <trkpt lat="43.02937" lon="-1.06064">
        <ele>1351.6</ele>
        <time>2021-12-20T12:21:18Z</time>
      </trkpt>
      <trkpt lat="43.02936" lon="-1.06054">
        <ele>1351.36</ele>
        <time>2021-12-20T12:21:33Z</time>
      </trkpt>
      <trkpt lat="43.02943" lon="-1.06043">
        <ele>1349.06</ele>
        <time>2021-12-20T12:21:52Z</time>
      </trkpt>
      <trkpt lat="43.02951" lon="-1.06025">
        <ele>1347.52</ele>
        <time>2021-12-20T12:22:12Z</time>
      </trkpt>
      <trkpt lat="43.0296" lon="-1.0601">
        <ele>1347.03</ele>
        <time>2021-12-20T12:22:30Z</time>
      </trkpt>
      <trkpt lat="43.02964" lon="-1.05995">
        <ele>1345.95</ele>
        <time>2021-12-20T12:22:45Z</time>
      </trkpt>
      <trkpt lat="43.02968" lon="-1.05981">
        <ele>1344.6</ele>
        <time>2021-12-20T12:23:00Z</time>
      </trkpt>
      <trkpt lat="43.02974" lon="-1.0597">
        <ele>1343.82</ele>
        <time>2021-12-20T12:23:14Z</time>
      </trkpt>
      <trkpt lat="43.02984" lon="-1.05955">
        <ele>1342.27</ele>
        <time>2021-12-20T12:23:33Z</time>
      </trkpt>
      <trkpt lat="43.02994" lon="-1.05941">
        <ele>1341.19</ele>
        <time>2021-12-20T12:23:49Z</time>
      </trkpt>
      <trkpt lat="43.02995" lon="-1.0594">
        <ele>1341.4</ele>
        <time>2021-12-20T12:23:51Z</time>
      </trkpt>
      <trkpt lat="43.03003" lon="-1.05925">
        <ele>1340.81</ele>
        <time>2021-12-20T12:24:06Z</time>
      </trkpt>
      <trkpt lat="43.03011" lon="-1.05912">
        <ele>1339.4</ele>
        <time>2021-12-20T12:24:25Z</time>
      </trkpt>
      <trkpt lat="43.03019" lon="-1.059">
        <ele>1338.09</ele>
        <time>2021-12-20T12:24:42Z</time>
      </trkpt>
      <trkpt lat="43.03024" lon="-1.05883">
        <ele>1336.98</ele>
        <time>2021-12-20T12:25:00Z</time>
      </trkpt>
      <trkpt lat="43.03033" lon="-1.05868">
        <ele>1334.99</ele>
        <time>2021-12-20T12:25:19Z</time>
      </trkpt>
      <trkpt lat="43.0304" lon="-1.05852">
        <ele>1333.65</ele>
        <time>2021-12-20T12:25:37Z</time>
      </trkpt>
      <trkpt lat="43.03046" lon="-1.05833">
        <ele>1332.21</ele>
        <time>2021-12-20T12:25:57Z</time>
      </trkpt>
      <trkpt lat="43.03054" lon="-1.05823">
        <ele>1331.44</ele>
        <time>2021-12-20T12:26:12Z</time>
      </trkpt>
      <trkpt lat="43.03059" lon="-1.05808">
        <ele>1330.21</ele>
        <time>2021-12-20T12:26:30Z</time>
      </trkpt>
      <trkpt lat="43.03068" lon="-1.05795">
        <ele>1329.06</ele>
        <time>2021-12-20T12:26:47Z</time>
      </trkpt>
      <trkpt lat="43.03073" lon="-1.05778">
        <ele>1327.58</ele>
        <time>2021-12-20T12:27:05Z</time>
      </trkpt>
      <trkpt lat="43.03081" lon="-1.05767">
        <ele>1326.8</ele>
        <time>2021-12-20T12:27:21Z</time>
      </trkpt>
      <trkpt lat="43.03088" lon="-1.05754">
        <ele>1325.78</ele>
        <time>2021-12-20T12:27:39Z</time>
      </trkpt>
      <trkpt lat="43.03093" lon="-1.05735">
        <ele>1324.34</ele>
        <time>2021-12-20T12:27:58Z</time>
      </trkpt>
      <trkpt lat="43.03101" lon="-1.05722">
        <ele>1323.35</ele>
        <time>2021-12-20T12:28:14Z</time>
      </trkpt>
      <trkpt lat="43.03106" lon="-1.05707">
        <ele>1321.91</ele>
        <time>2021-12-20T12:28:30Z</time>
      </trkpt>
      <trkpt lat="43.0311" lon="-1.05695">
        <ele>1320.75</ele>
        <time>2021-12-20T12:28:48Z</time>
      </trkpt>
      <trkpt lat="43.03116" lon="-1.05675">
        <ele>1318.93</ele>
        <time>2021-12-20T12:29:09Z</time>
      </trkpt>
      <trkpt lat="43.0312" lon="-1.05661">
        <ele>1317.55</ele>
        <time>2021-12-20T12:29:24Z</time>
      </trkpt>
      <trkpt lat="43.03125" lon="-1.05645">
        <ele>1317.06</ele>
        <time>2021-12-20T12:29:44Z</time>
      </trkpt>
      <trkpt lat="43.03126" lon="-1.0563">
        <ele>1315.55</ele>
        <time>2021-12-20T12:30:00Z</time>
      </trkpt>
      <trkpt lat="43.0313" lon="-1.0561">
        <ele>1314.69</ele>
        <time>2021-12-20T12:30:18Z</time>
      </trkpt>
      <trkpt lat="43.03135" lon="-1.05595">
        <ele>1313.97</ele>
        <time>2021-12-20T12:30:33Z</time>
      </trkpt>
      <trkpt lat="43.03142" lon="-1.05576">
        <ele>1312.95</ele>
        <time>2021-12-20T12:30:52Z</time>
      </trkpt>
      <trkpt lat="43.03144" lon="-1.05555">
        <ele>1312.47</ele>
        <time>2021-12-20T12:31:09Z</time>
      </trkpt>
      <trkpt lat="43.0315" lon="-1.05539">
        <ele>1311.65</ele>
        <time>2021-12-20T12:31:28Z</time>
      </trkpt>
      <trkpt lat="43.03157" lon="-1.05525">
        <ele>1311.32</ele>
        <time>2021-12-20T12:31:45Z</time>
      </trkpt>
      <trkpt lat="43.03161" lon="-1.05508">
        <ele>1310.25</ele>
        <time>2021-12-20T12:32:00Z</time>
      </trkpt>
      <trkpt lat="43.0317" lon="-1.05486">
        <ele>1309.03</ele>
        <time>2021-12-20T12:32:20Z</time>
      </trkpt>
      <trkpt lat="43.03174" lon="-1.05469">
        <ele>1308.01</ele>
        <time>2021-12-20T12:32:36Z</time>
      </trkpt>
      <trkpt lat="43.03177" lon="-1.05456">
        <ele>1307.5</ele>
        <time>2021-12-20T12:32:52Z</time>
      </trkpt>
      <trkpt lat="43.03179" lon="-1.05438">
        <ele>1307.18</ele>
        <time>2021-12-20T12:33:09Z</time>
      </trkpt>
      <trkpt lat="43.03183" lon="-1.05424">
        <ele>1307.19</ele>
        <time>2021-12-20T12:33:23Z</time>
      </trkpt>
      <trkpt lat="43.03187" lon="-1.05408">
        <ele>1307.8</ele>
        <time>2021-12-20T12:33:39Z</time>
      </trkpt>
      <trkpt lat="43.03193" lon="-1.05394">
        <ele>1307.94</ele>
        <time>2021-12-20T12:33:55Z</time>
      </trkpt>
      <trkpt lat="43.03196" lon="-1.05379">
        <ele>1308.23</ele>
        <time>2021-12-20T12:34:11Z</time>
      </trkpt>
      <trkpt lat="43.03192" lon="-1.05361">
        <ele>1308.6</ele>
        <time>2021-12-20T12:34:26Z</time>
      </trkpt>
      <trkpt lat="43.03192" lon="-1.05361">
        <ele>1308.53</ele>
        <time>2021-12-20T12:34:27Z</time>
      </trkpt>
      <trkpt lat="43.03192" lon="-1.05355">
        <ele>1308.57</ele>
        <time>2021-12-20T12:34:31Z</time>
      </trkpt>
      <trkpt lat="43.03193" lon="-1.0534">
        <ele>1309.03</ele>
        <time>2021-12-20T12:34:46Z</time>
      </trkpt>
      <trkpt lat="43.03192" lon="-1.05326">
        <ele>1309.28</ele>
        <time>2021-12-20T12:35:02Z</time>
      </trkpt>
      <trkpt lat="43.03189" lon="-1.0531">
        <ele>1309.77</ele>
        <time>2021-12-20T12:35:19Z</time>
      </trkpt>
      <trkpt lat="43.03187" lon="-1.053">
        <ele>1309.72</ele>
        <time>2021-12-20T12:35:34Z</time>
      </trkpt>
      <trkpt lat="43.03184" lon="-1.05297">
        <ele>1309.19</ele>
        <time>2021-12-20T12:35:46Z</time>
      </trkpt>
      <trkpt lat="43.03184" lon="-1.05298">
        <ele>1309.35</ele>
        <time>2021-12-20T12:35:49Z</time>
      </trkpt>
      <trkpt lat="43.03176" lon="-1.05293">
        <ele>1309.19</ele>
        <time>2021-12-20T12:36:03Z</time>
      </trkpt>
      <trkpt lat="43.03172" lon="-1.0529">
        <ele>1309.25</ele>
        <time>2021-12-20T12:36:10Z</time>
      </trkpt>
      <trkpt lat="43.03165" lon="-1.05283">
        <ele>1309.81</ele>
        <time>2021-12-20T12:36:21Z</time>
      </trkpt>
      <trkpt lat="43.03159" lon="-1.0527">
        <ele>1309.78</ele>
        <time>2021-12-20T12:36:33Z</time>
      </trkpt>
      <trkpt lat="43.0315" lon="-1.05255">
        <ele>1310.07</ele>
        <time>2021-12-20T12:36:49Z</time>
      </trkpt>
      <trkpt lat="43.03147" lon="-1.05251">
        <ele>1310.48</ele>
        <time>2021-12-20T12:36:55Z</time>
      </trkpt>
      <trkpt lat="43.03143" lon="-1.05248">
        <ele>1311.04</ele>
        <time>2021-12-20T12:37:02Z</time>
      </trkpt>
      <trkpt lat="43.03134" lon="-1.05236">
        <ele>1311.65</ele>
        <time>2021-12-20T12:37:23Z</time>
      </trkpt>
      <trkpt lat="43.03139" lon="-1.05232">
        <ele>1311.49</ele>
        <time>2021-12-20T12:37:43Z</time>
      </trkpt>
      <trkpt lat="43.03128" lon="-1.05226">
        <ele>1312.77</ele>
        <time>2021-12-20T12:38:05Z</time>
      </trkpt>
      <trkpt lat="43.03118" lon="-1.05216">
        <ele>1314.17</ele>
        <time>2021-12-20T12:38:22Z</time>
      </trkpt>
      <trkpt lat="43.03107" lon="-1.05201">
        <ele>1314.61</ele>
        <time>2021-12-20T12:38:37Z</time>
      </trkpt>
      <trkpt lat="43.03099" lon="-1.05193">
        <ele>1315.72</ele>
        <time>2021-12-20T12:38:52Z</time>
      </trkpt>
      <trkpt lat="43.03089" lon="-1.05184">
        <ele>1316.29</ele>
        <time>2021-12-20T12:39:08Z</time>
      </trkpt>
      <trkpt lat="43.03083" lon="-1.0517">
        <ele>1317.14</ele>
        <time>2021-12-20T12:39:25Z</time>
      </trkpt>
      <trkpt lat="43.03082" lon="-1.05163">
        <ele>1317.23</ele>
        <time>2021-12-20T12:39:43Z</time>
      </trkpt>
      <trkpt lat="43.03078" lon="-1.05147">
        <ele>1317.53</ele>
        <time>2021-12-20T12:40:00Z</time>
      </trkpt>
      <trkpt lat="43.03071" lon="-1.05137">
        <ele>1317.66</ele>
        <time>2021-12-20T12:40:17Z</time>
      </trkpt>
      <trkpt lat="43.03065" lon="-1.05131">
        <ele>1317.99</ele>
        <time>2021-12-20T12:40:27Z</time>
      </trkpt>
      <trkpt lat="43.03052" lon="-1.05123">
        <ele>1318.37</ele>
        <time>2021-12-20T12:40:45Z</time>
      </trkpt>
      <trkpt lat="43.03042" lon="-1.05111">
        <ele>1317.79</ele>
        <time>2021-12-20T12:41:06Z</time>
      </trkpt>
      <trkpt lat="43.03032" lon="-1.05094">
        <ele>1316.97</ele>
        <time>2021-12-20T12:41:24Z</time>
      </trkpt>
      <trkpt lat="43.03023" lon="-1.05085">
        <ele>1316.47</ele>
        <time>2021-12-20T12:41:41Z</time>
      </trkpt>
      <trkpt lat="43.03019" lon="-1.05082">
        <ele>1316.68</ele>
        <time>2021-12-20T12:41:49Z</time>
      </trkpt>
      <trkpt lat="43.03011" lon="-1.05071">
        <ele>1316.52</ele>
        <time>2021-12-20T12:42:07Z</time>
      </trkpt>
      <trkpt lat="43.03002" lon="-1.05057">
        <ele>1317.76</ele>
        <time>2021-12-20T12:42:26Z</time>
      </trkpt>
      <trkpt lat="43.02995" lon="-1.05044">
        <ele>1318.22</ele>
        <time>2021-12-20T12:42:44Z</time>
      </trkpt>
      <trkpt lat="43.02986" lon="-1.05032">
        <ele>1317.68</ele>
        <time>2021-12-20T12:43:01Z</time>
      </trkpt>
      <trkpt lat="43.02976" lon="-1.05017">
        <ele>1316.82</ele>
        <time>2021-12-20T12:43:19Z</time>
      </trkpt>
      <trkpt lat="43.02975" lon="-1.05013">
        <ele>1316.76</ele>
        <time>2021-12-20T12:43:24Z</time>
      </trkpt>
      <trkpt lat="43.02967" lon="-1.05002">
        <ele>1315.19</ele>
        <time>2021-12-20T12:43:41Z</time>
      </trkpt>
      <trkpt lat="43.02956" lon="-1.04992">
        <ele>1313.92</ele>
        <time>2021-12-20T12:43:57Z</time>
      </trkpt>
      <trkpt lat="43.02948" lon="-1.04991">
        <ele>1313.54</ele>
        <time>2021-12-20T12:44:11Z</time>
      </trkpt>
      <trkpt lat="43.02937" lon="-1.04975">
        <ele>1312.74</ele>
        <time>2021-12-20T12:44:29Z</time>
      </trkpt>
      <trkpt lat="43.02937" lon="-1.04974">
        <ele>1312.79</ele>
        <time>2021-12-20T12:44:30Z</time>
      </trkpt>
      <trkpt lat="43.02934" lon="-1.04967">
        <ele>1313</ele>
        <time>2021-12-20T12:44:34Z</time>
      </trkpt>
      <trkpt lat="43.02931" lon="-1.04952">
        <ele>1313.42</ele>
        <time>2021-12-20T12:44:49Z</time>
      </trkpt>
      <trkpt lat="43.02931" lon="-1.04951">
        <ele>1313.21</ele>
        <time>2021-12-20T12:44:50Z</time>
      </trkpt>
      <trkpt lat="43.02924" lon="-1.04937">
        <ele>1313.72</ele>
        <time>2021-12-20T12:45:04Z</time>
      </trkpt>
      <trkpt lat="43.02927" lon="-1.04922">
        <ele>1313.52</ele>
        <time>2021-12-20T12:45:20Z</time>
      </trkpt>
      <trkpt lat="43.02927" lon="-1.04918">
        <ele>1313.46</ele>
        <time>2021-12-20T12:45:23Z</time>
      </trkpt>
      <trkpt lat="43.02929" lon="-1.04899">
        <ele>1313.98</ele>
        <time>2021-12-20T12:45:41Z</time>
      </trkpt>
      <trkpt lat="43.02933" lon="-1.04884">
        <ele>1315.12</ele>
        <time>2021-12-20T12:45:58Z</time>
      </trkpt>
      <trkpt lat="43.02936" lon="-1.04868">
        <ele>1316.34</ele>
        <time>2021-12-20T12:46:16Z</time>
      </trkpt>
      <trkpt lat="43.0294" lon="-1.04853">
        <ele>1317.69</ele>
        <time>2021-12-20T12:46:31Z</time>
      </trkpt>
      <trkpt lat="43.02938" lon="-1.0484">
        <ele>1318.84</ele>
        <time>2021-12-20T12:46:49Z</time>
      </trkpt>
      <trkpt lat="43.0294" lon="-1.04829">
        <ele>1319.55</ele>
        <time>2021-12-20T12:47:01Z</time>
      </trkpt>
      <trkpt lat="43.02939" lon="-1.04815">
        <ele>1320.74</ele>
        <time>2021-12-20T12:47:15Z</time>
      </trkpt>
      <trkpt lat="43.02942" lon="-1.04797">
        <ele>1321.63</ele>
        <time>2021-12-20T12:47:32Z</time>
      </trkpt>
      <trkpt lat="43.02947" lon="-1.04782">
        <ele>1322.91</ele>
        <time>2021-12-20T12:47:49Z</time>
      </trkpt>
      <trkpt lat="43.02958" lon="-1.04769">
        <ele>1323.35</ele>
        <time>2021-12-20T12:48:04Z</time>
      </trkpt>
      <trkpt lat="43.02962" lon="-1.04763">
        <ele>1324.02</ele>
        <time>2021-12-20T12:48:14Z</time>
      </trkpt>
      <trkpt lat="43.02964" lon="-1.0476">
        <ele>1324.41</ele>
        <time>2021-12-20T12:48:17Z</time>
      </trkpt>
      <trkpt lat="43.02966" lon="-1.04759">
        <ele>1324.37</ele>
        <time>2021-12-20T12:48:21Z</time>
      </trkpt>
      <trkpt lat="43.02971" lon="-1.04748">
        <ele>1325.4</ele>
        <time>2021-12-20T12:48:39Z</time>
      </trkpt>
      <trkpt lat="43.02973" lon="-1.04735">
        <ele>1326.17</ele>
        <time>2021-12-20T12:48:55Z</time>
      </trkpt>
      <trkpt lat="43.0298" lon="-1.04722">
        <ele>1326.33</ele>
        <time>2021-12-20T12:49:10Z</time>
      </trkpt>
      <trkpt lat="43.02984" lon="-1.04709">
        <ele>1327.03</ele>
        <time>2021-12-20T12:49:26Z</time>
      </trkpt>
      <trkpt lat="43.02992" lon="-1.04696">
        <ele>1327.23</ele>
        <time>2021-12-20T12:49:39Z</time>
      </trkpt>
      <trkpt lat="43.02996" lon="-1.04679">
        <ele>1327.57</ele>
        <time>2021-12-20T12:49:56Z</time>
      </trkpt>
      <trkpt lat="43.03002" lon="-1.04666">
        <ele>1327.39</ele>
        <time>2021-12-20T12:50:11Z</time>
      </trkpt>
      <trkpt lat="43.03012" lon="-1.04657">
        <ele>1326.97</ele>
        <time>2021-12-20T12:50:29Z</time>
      </trkpt>
      <trkpt lat="43.03019" lon="-1.04641">
        <ele>1327.08</ele>
        <time>2021-12-20T12:50:47Z</time>
      </trkpt>
      <trkpt lat="43.03022" lon="-1.04632">
        <ele>1327.58</ele>
        <time>2021-12-20T12:51:01Z</time>
      </trkpt>
      <trkpt lat="43.03032" lon="-1.04622">
        <ele>1327.68</ele>
        <time>2021-12-20T12:51:16Z</time>
      </trkpt>
      <trkpt lat="43.0304" lon="-1.04615">
        <ele>1327.88</ele>
        <time>2021-12-20T12:51:30Z</time>
      </trkpt>
      <trkpt lat="43.03047" lon="-1.0461">
        <ele>1327.72</ele>
        <time>2021-12-20T12:51:37Z</time>
      </trkpt>
      <trkpt lat="43.03057" lon="-1.04595">
        <ele>1328.04</ele>
        <time>2021-12-20T12:51:54Z</time>
      </trkpt>
      <trkpt lat="43.0306" lon="-1.04584">
        <ele>1328.3</ele>
        <time>2021-12-20T12:52:11Z</time>
      </trkpt>
      <trkpt lat="43.03065" lon="-1.04575">
        <ele>1328.45</ele>
        <time>2021-12-20T12:52:26Z</time>
      </trkpt>
      <trkpt lat="43.03075" lon="-1.04567">
        <ele>1329.49</ele>
        <time>2021-12-20T12:52:42Z</time>
      </trkpt>
      <trkpt lat="43.03084" lon="-1.04552">
        <ele>1330.3</ele>
        <time>2021-12-20T12:52:58Z</time>
      </trkpt>
      <trkpt lat="43.03085" lon="-1.0455">
        <ele>1330.46</ele>
        <time>2021-12-20T12:53:01Z</time>
      </trkpt>
      <trkpt lat="43.03093" lon="-1.04538">
        <ele>1331.58</ele>
        <time>2021-12-20T12:53:18Z</time>
      </trkpt>
      <trkpt lat="43.03098" lon="-1.0453">
        <ele>1332.08</ele>
        <time>2021-12-20T12:53:34Z</time>
      </trkpt>
      <trkpt lat="43.03101" lon="-1.04529">
        <ele>1332.44</ele>
        <time>2021-12-20T12:53:53Z</time>
      </trkpt>
      <trkpt lat="43.03108" lon="-1.04524">
        <ele>1332.24</ele>
        <time>2021-12-20T12:54:09Z</time>
      </trkpt>
      <trkpt lat="43.03115" lon="-1.0452">
        <ele>1332.21</ele>
        <time>2021-12-20T12:54:23Z</time>
      </trkpt>
      <trkpt lat="43.03117" lon="-1.04516">
        <ele>1332.03</ele>
        <time>2021-12-20T12:54:27Z</time>
      </trkpt>
      <trkpt lat="43.03122" lon="-1.04506">
        <ele>1331.68</ele>
        <time>2021-12-20T12:54:38Z</time>
      </trkpt>
      <trkpt lat="43.03122" lon="-1.04505">
        <ele>1331.78</ele>
        <time>2021-12-20T12:54:39Z</time>
      </trkpt>
      <trkpt lat="43.03127" lon="-1.0449">
        <ele>1330.61</ele>
        <time>2021-12-20T12:54:56Z</time>
      </trkpt>
      <trkpt lat="43.03127" lon="-1.0448">
        <ele>1329.56</ele>
        <time>2021-12-20T12:55:13Z</time>
      </trkpt>
      <trkpt lat="43.03122" lon="-1.04469">
        <ele>1329.25</ele>
        <time>2021-12-20T12:55:31Z</time>
      </trkpt>
      <trkpt lat="43.03118" lon="-1.04462">
        <ele>1327.78</ele>
        <time>2021-12-20T12:55:48Z</time>
      </trkpt>
      <trkpt lat="43.03116" lon="-1.04454">
        <ele>1326.99</ele>
        <time>2021-12-20T12:56:04Z</time>
      </trkpt>
      <trkpt lat="43.03115" lon="-1.0445">
        <ele>1326.56</ele>
        <time>2021-12-20T12:56:09Z</time>
      </trkpt>
      <trkpt lat="43.03113" lon="-1.04431">
        <ele>1325.61</ele>
        <time>2021-12-20T12:56:26Z</time>
      </trkpt>
      <trkpt lat="43.03113" lon="-1.04413">
        <ele>1324.26</ele>
        <time>2021-12-20T12:56:45Z</time>
      </trkpt>
      <trkpt lat="43.03112" lon="-1.04401">
        <ele>1323.64</ele>
        <time>2021-12-20T12:57:02Z</time>
      </trkpt>
      <trkpt lat="43.03106" lon="-1.04391">
        <ele>1323.63</ele>
        <time>2021-12-20T12:57:31Z</time>
      </trkpt>
      <trkpt lat="43.03108" lon="-1.04376">
        <ele>1322.12</ele>
        <time>2021-12-20T12:57:49Z</time>
      </trkpt>
      <trkpt lat="43.03106" lon="-1.04357">
        <ele>1320.89</ele>
        <time>2021-12-20T12:58:06Z</time>
      </trkpt>
      <trkpt lat="43.03106" lon="-1.0434">
        <ele>1320.27</ele>
        <time>2021-12-20T12:58:25Z</time>
      </trkpt>
      <trkpt lat="43.03105" lon="-1.04325">
        <ele>1319.72</ele>
        <time>2021-12-20T12:58:42Z</time>
      </trkpt>
      <trkpt lat="43.031" lon="-1.04308">
        <ele>1319.24</ele>
        <time>2021-12-20T12:59:00Z</time>
      </trkpt>
      <trkpt lat="43.03097" lon="-1.04293">
        <ele>1319.18</ele>
        <time>2021-12-20T12:59:17Z</time>
      </trkpt>
      <trkpt lat="43.03095" lon="-1.04278">
        <ele>1318.57</ele>
        <time>2021-12-20T12:59:35Z</time>
      </trkpt>
      <trkpt lat="43.03093" lon="-1.04258">
        <ele>1318.17</ele>
        <time>2021-12-20T12:59:52Z</time>
      </trkpt>
      <trkpt lat="43.03094" lon="-1.04242">
        <ele>1319.11</ele>
        <time>2021-12-20T13:00:08Z</time>
      </trkpt>
      <trkpt lat="43.03093" lon="-1.04233">
        <ele>1319.58</ele>
        <time>2021-12-20T13:00:22Z</time>
      </trkpt>
      <trkpt lat="43.0309" lon="-1.04219">
        <ele>1320.61</ele>
        <time>2021-12-20T13:00:39Z</time>
      </trkpt>
      <trkpt lat="43.03087" lon="-1.04202">
        <ele>1321.14</ele>
        <time>2021-12-20T13:00:56Z</time>
      </trkpt>
      <trkpt lat="43.03085" lon="-1.04182">
        <ele>1321.08</ele>
        <time>2021-12-20T13:01:13Z</time>
      </trkpt>
      <trkpt lat="43.03084" lon="-1.04165">
        <ele>1320.75</ele>
        <time>2021-12-20T13:01:29Z</time>
      </trkpt>
      <trkpt lat="43.03085" lon="-1.04156">
        <ele>1320.43</ele>
        <time>2021-12-20T13:01:37Z</time>
      </trkpt>
      <trkpt lat="43.03084" lon="-1.04142">
        <ele>1320.38</ele>
        <time>2021-12-20T13:01:53Z</time>
      </trkpt>
      <trkpt lat="43.03079" lon="-1.04125">
        <ele>1319.85</ele>
        <time>2021-12-20T13:02:09Z</time>
      </trkpt>
      <trkpt lat="43.03072" lon="-1.04113">
        <ele>1320.71</ele>
        <time>2021-12-20T13:02:24Z</time>
      </trkpt>
      <trkpt lat="43.03069" lon="-1.04101">
        <ele>1321.16</ele>
        <time>2021-12-20T13:02:40Z</time>
      </trkpt>
      <trkpt lat="43.03068" lon="-1.04099">
        <ele>1321.48</ele>
        <time>2021-12-20T13:02:43Z</time>
      </trkpt>
      <trkpt lat="43.03069" lon="-1.04085">
        <ele>1322.06</ele>
        <time>2021-12-20T13:03:01Z</time>
      </trkpt>
      <trkpt lat="43.03062" lon="-1.04074">
        <ele>1322.26</ele>
        <time>2021-12-20T13:03:15Z</time>
      </trkpt>
      <trkpt lat="43.03053" lon="-1.04058">
        <ele>1323.17</ele>
        <time>2021-12-20T13:03:31Z</time>
      </trkpt>
      <trkpt lat="43.03047" lon="-1.04043">
        <ele>1324.39</ele>
        <time>2021-12-20T13:03:48Z</time>
      </trkpt>
      <trkpt lat="43.03047" lon="-1.04042">
        <ele>1324.3</ele>
        <time>2021-12-20T13:03:49Z</time>
      </trkpt>
      <trkpt lat="43.03041" lon="-1.04032">
        <ele>1325.01</ele>
        <time>2021-12-20T13:04:01Z</time>
      </trkpt>
      <trkpt lat="43.03039" lon="-1.04023">
        <ele>1325.62</ele>
        <time>2021-12-20T13:04:10Z</time>
      </trkpt>
      <trkpt lat="43.03035" lon="-1.04015">
        <ele>1326.25</ele>
        <time>2021-12-20T13:04:20Z</time>
      </trkpt>
      <trkpt lat="43.03028" lon="-1.04002">
        <ele>1326.81</ele>
        <time>2021-12-20T13:04:35Z</time>
      </trkpt>
      <trkpt lat="43.03022" lon="-1.03992">
        <ele>1327.05</ele>
        <time>2021-12-20T13:04:45Z</time>
      </trkpt>
      <trkpt lat="43.03019" lon="-1.0399">
        <ele>1327.61</ele>
        <time>2021-12-20T13:04:49Z</time>
      </trkpt>
      <trkpt lat="43.03011" lon="-1.03983">
        <ele>1328.63</ele>
        <time>2021-12-20T13:05:03Z</time>
      </trkpt>
      <trkpt lat="43.03011" lon="-1.03982">
        <ele>1328.75</ele>
        <time>2021-12-20T13:05:04Z</time>
      </trkpt>
      <trkpt lat="43.02999" lon="-1.03973">
        <ele>1329.4</ele>
        <time>2021-12-20T13:05:23Z</time>
      </trkpt>
      <trkpt lat="43.02998" lon="-1.03972">
        <ele>1329.63</ele>
        <time>2021-12-20T13:05:25Z</time>
      </trkpt>
      <trkpt lat="43.02987" lon="-1.03966">
        <ele>1331.11</ele>
        <time>2021-12-20T13:05:39Z</time>
      </trkpt>
      <trkpt lat="43.02982" lon="-1.03962">
        <ele>1331.94</ele>
        <time>2021-12-20T13:05:45Z</time>
      </trkpt>
      <trkpt lat="43.02969" lon="-1.03949">
        <ele>1333.58</ele>
        <time>2021-12-20T13:06:06Z</time>
      </trkpt>
      <trkpt lat="43.02963" lon="-1.03933">
        <ele>1335.21</ele>
        <time>2021-12-20T13:06:25Z</time>
      </trkpt>
      <trkpt lat="43.02953" lon="-1.03923">
        <ele>1336.78</ele>
        <time>2021-12-20T13:06:40Z</time>
      </trkpt>
      <trkpt lat="43.02944" lon="-1.03916">
        <ele>1338.63</ele>
        <time>2021-12-20T13:06:58Z</time>
      </trkpt>
      <trkpt lat="43.02931" lon="-1.03909">
        <ele>1340.23</ele>
        <time>2021-12-20T13:07:15Z</time>
      </trkpt>
      <trkpt lat="43.02919" lon="-1.03904">
        <ele>1342.23</ele>
        <time>2021-12-20T13:07:32Z</time>
      </trkpt>
      <trkpt lat="43.02907" lon="-1.03896">
        <ele>1343.92</ele>
        <time>2021-12-20T13:07:49Z</time>
      </trkpt>
      <trkpt lat="43.02898" lon="-1.03887">
        <ele>1345.16</ele>
        <time>2021-12-20T13:08:06Z</time>
      </trkpt>
      <trkpt lat="43.02891" lon="-1.03878">
        <ele>1346.81</ele>
        <time>2021-12-20T13:08:23Z</time>
      </trkpt>
      <trkpt lat="43.02882" lon="-1.0387">
        <ele>1348.23</ele>
        <time>2021-12-20T13:08:39Z</time>
      </trkpt>
      <trkpt lat="43.02871" lon="-1.03864">
        <ele>1349.56</ele>
        <time>2021-12-20T13:08:54Z</time>
      </trkpt>
      <trkpt lat="43.02861" lon="-1.03858">
        <ele>1350.79</ele>
        <time>2021-12-20T13:09:09Z</time>
      </trkpt>
      <trkpt lat="43.02851" lon="-1.0386">
        <ele>1352.09</ele>
        <time>2021-12-20T13:09:26Z</time>
      </trkpt>
      <trkpt lat="43.0285" lon="-1.03855">
        <ele>1352.3</ele>
        <time>2021-12-20T13:09:51Z</time>
      </trkpt>
      <trkpt lat="43.02843" lon="-1.03849">
        <ele>1352.83</ele>
        <time>2021-12-20T13:10:02Z</time>
      </trkpt>
      <trkpt lat="43.02836" lon="-1.03853">
        <ele>1354.82</ele>
        <time>2021-12-20T13:10:19Z</time>
      </trkpt>
      <trkpt lat="43.02829" lon="-1.03851">
        <ele>1355.32</ele>
        <time>2021-12-20T13:10:36Z</time>
      </trkpt>
      <trkpt lat="43.02822" lon="-1.03848">
        <ele>1355.62</ele>
        <time>2021-12-20T13:10:48Z</time>
      </trkpt>
      <trkpt lat="43.0282" lon="-1.03844">
        <ele>1355.72</ele>
        <time>2021-12-20T13:10:53Z</time>
      </trkpt>
      <trkpt lat="43.02819" lon="-1.03842">
        <ele>1355.69</ele>
        <time>2021-12-20T13:10:55Z</time>
      </trkpt>
      <trkpt lat="43.02818" lon="-1.0384">
        <ele>1355.63</ele>
        <time>2021-12-20T13:10:57Z</time>
      </trkpt>
      <trkpt lat="43.02815" lon="-1.03832">
        <ele>1354.88</ele>
        <time>2021-12-20T13:11:04Z</time>
      </trkpt>
      <trkpt lat="43.02815" lon="-1.03819">
        <ele>1354.54</ele>
        <time>2021-12-20T13:11:14Z</time>
      </trkpt>
      <trkpt lat="43.02816" lon="-1.03806">
        <ele>1354.35</ele>
        <time>2021-12-20T13:11:26Z</time>
      </trkpt>
      <trkpt lat="43.02821" lon="-1.03797">
        <ele>1355.07</ele>
        <time>2021-12-20T13:11:56Z</time>
      </trkpt>
      <trkpt lat="43.02833" lon="-1.0379">
        <ele>1355.69</ele>
        <time>2021-12-20T13:12:12Z</time>
      </trkpt>
      <trkpt lat="43.02838" lon="-1.03782">
        <ele>1355.95</ele>
        <time>2021-12-20T13:12:18Z</time>
      </trkpt>
      <trkpt lat="43.02844" lon="-1.03774">
        <ele>1356.34</ele>
        <time>2021-12-20T13:12:28Z</time>
      </trkpt>
      <trkpt lat="43.02856" lon="-1.03763">
        <ele>1357.51</ele>
        <time>2021-12-20T13:12:47Z</time>
      </trkpt>
      <trkpt lat="43.02857" lon="-1.03762">
        <ele>1357.87</ele>
        <time>2021-12-20T13:12:49Z</time>
      </trkpt>
      <trkpt lat="43.02859" lon="-1.03762">
        <ele>1357.89</ele>
        <time>2021-12-20T13:12:51Z</time>
      </trkpt>
      <trkpt lat="43.02864" lon="-1.03741">
        <ele>1359.17</ele>
        <time>2021-12-20T13:13:06Z</time>
      </trkpt>
      <trkpt lat="43.02864" lon="-1.03732">
        <ele>1359.9</ele>
        <time>2021-12-20T13:13:14Z</time>
      </trkpt>
      <trkpt lat="43.02867" lon="-1.0372">
        <ele>1360.83</ele>
        <time>2021-12-20T13:13:29Z</time>
      </trkpt>
      <trkpt lat="43.02867" lon="-1.03719">
        <ele>1360.96</ele>
        <time>2021-12-20T13:13:30Z</time>
      </trkpt>
      <trkpt lat="43.02869" lon="-1.03711">
        <ele>1361.8</ele>
        <time>2021-12-20T13:13:41Z</time>
      </trkpt>
      <trkpt lat="43.02869" lon="-1.03699">
        <ele>1363.04</ele>
        <time>2021-12-20T13:13:54Z</time>
      </trkpt>
      <trkpt lat="43.0287" lon="-1.03687">
        <ele>1364.25</ele>
        <time>2021-12-20T13:14:08Z</time>
      </trkpt>
      <trkpt lat="43.02871" lon="-1.03678">
        <ele>1365.2</ele>
        <time>2021-12-20T13:14:22Z</time>
      </trkpt>
      <trkpt lat="43.02874" lon="-1.03674">
        <ele>1365.17</ele>
        <time>2021-12-20T13:14:27Z</time>
      </trkpt>
      <trkpt lat="43.02877" lon="-1.03667">
        <ele>1365.32</ele>
        <time>2021-12-20T13:14:34Z</time>
      </trkpt>
      <trkpt lat="43.02879" lon="-1.03664">
        <ele>1365.2</ele>
        <time>2021-12-20T13:14:37Z</time>
      </trkpt>
      <trkpt lat="43.02881" lon="-1.0366">
        <ele>1365.53</ele>
        <time>2021-12-20T13:14:42Z</time>
      </trkpt>
      <trkpt lat="43.02887" lon="-1.03652">
        <ele>1365.21</ele>
        <time>2021-12-20T13:14:53Z</time>
      </trkpt>
      <trkpt lat="43.0289" lon="-1.03647">
        <ele>1365.32</ele>
        <time>2021-12-20T13:14:57Z</time>
      </trkpt>
      <trkpt lat="43.02892" lon="-1.03642">
        <ele>1365.85</ele>
        <time>2021-12-20T13:15:02Z</time>
      </trkpt>
      <trkpt lat="43.02894" lon="-1.03639">
        <ele>1366.14</ele>
        <time>2021-12-20T13:15:05Z</time>
      </trkpt>
      <trkpt lat="43.02898" lon="-1.03636">
        <ele>1366.21</ele>
        <time>2021-12-20T13:15:13Z</time>
      </trkpt>
      <trkpt lat="43.02906" lon="-1.03634">
        <ele>1366.64</ele>
        <time>2021-12-20T13:15:24Z</time>
      </trkpt>
      <trkpt lat="43.02914" lon="-1.03634">
        <ele>1367.44</ele>
        <time>2021-12-20T13:15:37Z</time>
      </trkpt>
      <trkpt lat="43.02914" lon="-1.03635">
        <ele>1367.58</ele>
        <time>2021-12-20T13:15:38Z</time>
      </trkpt>
      <trkpt lat="43.02921" lon="-1.03637">
        <ele>1368.05</ele>
        <time>2021-12-20T13:15:50Z</time>
      </trkpt>
      <trkpt lat="43.02927" lon="-1.03639">
        <ele>1367.99</ele>
        <time>2021-12-20T13:15:58Z</time>
      </trkpt>
      <trkpt lat="43.02932" lon="-1.03641">
        <ele>1368.39</ele>
        <time>2021-12-20T13:16:08Z</time>
      </trkpt>
      <trkpt lat="43.02938" lon="-1.03645">
        <ele>1368.51</ele>
        <time>2021-12-20T13:16:16Z</time>
      </trkpt>
      <trkpt lat="43.02945" lon="-1.03648">
        <ele>1369.37</ele>
        <time>2021-12-20T13:16:28Z</time>
      </trkpt>
      <trkpt lat="43.02946" lon="-1.03649">
        <ele>1369.66</ele>
        <time>2021-12-20T13:16:30Z</time>
      </trkpt>
      <trkpt lat="43.02953" lon="-1.03651">
        <ele>1370.31</ele>
        <time>2021-12-20T13:16:42Z</time>
      </trkpt>
      <trkpt lat="43.02961" lon="-1.03657">
        <ele>1370.58</ele>
        <time>2021-12-20T13:16:54Z</time>
      </trkpt>
      <trkpt lat="43.02966" lon="-1.03663">
        <ele>1371.04</ele>
        <time>2021-12-20T13:17:08Z</time>
      </trkpt>
      <trkpt lat="43.02967" lon="-1.03663">
        <ele>1371.01</ele>
        <time>2021-12-20T13:17:09Z</time>
      </trkpt>
      <trkpt lat="43.02972" lon="-1.03665">
        <ele>1370.95</ele>
        <time>2021-12-20T13:17:15Z</time>
      </trkpt>
      <trkpt lat="43.02979" lon="-1.03673">
        <ele>1370.33</ele>
        <time>2021-12-20T13:17:25Z</time>
      </trkpt>
      <trkpt lat="43.02985" lon="-1.03678">
        <ele>1370.41</ele>
        <time>2021-12-20T13:17:34Z</time>
      </trkpt>
      <trkpt lat="43.02993" lon="-1.0368">
        <ele>1371.72</ele>
        <time>2021-12-20T13:17:45Z</time>
      </trkpt>
      <trkpt lat="43.03" lon="-1.03677">
        <ele>1372.29</ele>
        <time>2021-12-20T13:17:56Z</time>
      </trkpt>
      <trkpt lat="43.0301" lon="-1.03676">
        <ele>1372.87</ele>
        <time>2021-12-20T13:18:07Z</time>
      </trkpt>
      <trkpt lat="43.03021" lon="-1.03673">
        <ele>1373.37</ele>
        <time>2021-12-20T13:18:23Z</time>
      </trkpt>
      <trkpt lat="43.03029" lon="-1.0367">
        <ele>1373.68</ele>
        <time>2021-12-20T13:18:34Z</time>
      </trkpt>
      <trkpt lat="43.03035" lon="-1.03665">
        <ele>1373.82</ele>
        <time>2021-12-20T13:18:43Z</time>
      </trkpt>
      <trkpt lat="43.03046" lon="-1.03657">
        <ele>1374.58</ele>
        <time>2021-12-20T13:18:59Z</time>
      </trkpt>
      <trkpt lat="43.03056" lon="-1.03649">
        <ele>1375.13</ele>
        <time>2021-12-20T13:19:15Z</time>
      </trkpt>
      <trkpt lat="43.0306" lon="-1.03644">
        <ele>1375.76</ele>
        <time>2021-12-20T13:19:30Z</time>
      </trkpt>
      <trkpt lat="43.03068" lon="-1.0364">
        <ele>1375.28</ele>
        <time>2021-12-20T13:19:53Z</time>
      </trkpt>
      <trkpt lat="43.03075" lon="-1.03633">
        <ele>1375.44</ele>
        <time>2021-12-20T13:20:06Z</time>
      </trkpt>
      <trkpt lat="43.03082" lon="-1.03624">
        <ele>1375.74</ele>
        <time>2021-12-20T13:20:21Z</time>
      </trkpt>
      <trkpt lat="43.03087" lon="-1.03614">
        <ele>1375.84</ele>
        <time>2021-12-20T13:20:32Z</time>
      </trkpt>
      <trkpt lat="43.03096" lon="-1.03606">
        <ele>1375.77</ele>
        <time>2021-12-20T13:20:46Z</time>
      </trkpt>
      <trkpt lat="43.03102" lon="-1.03599">
        <ele>1376.28</ele>
        <time>2021-12-20T13:20:58Z</time>
      </trkpt>
      <trkpt lat="43.03107" lon="-1.03588">
        <ele>1377.08</ele>
        <time>2021-12-20T13:21:12Z</time>
      </trkpt>
      <trkpt lat="43.03115" lon="-1.03579">
        <ele>1377.56</ele>
        <time>2021-12-20T13:21:25Z</time>
      </trkpt>
      <trkpt lat="43.0312" lon="-1.03578">
        <ele>1377.27</ele>
        <time>2021-12-20T13:21:30Z</time>
      </trkpt>
      <trkpt lat="43.03135" lon="-1.03572">
        <ele>1378.02</ele>
        <time>2021-12-20T13:21:51Z</time>
      </trkpt>
      <trkpt lat="43.03145" lon="-1.03568">
        <ele>1379.07</ele>
        <time>2021-12-20T13:22:04Z</time>
      </trkpt>
      <trkpt lat="43.03156" lon="-1.03564">
        <ele>1379.7</ele>
        <time>2021-12-20T13:22:20Z</time>
      </trkpt>
      <trkpt lat="43.03164" lon="-1.03563">
        <ele>1379.71</ele>
        <time>2021-12-20T13:22:32Z</time>
      </trkpt>
      <trkpt lat="43.03168" lon="-1.03562">
        <ele>1379.48</ele>
        <time>2021-12-20T13:22:36Z</time>
      </trkpt>
      <trkpt lat="43.03181" lon="-1.0357">
        <ele>1379.02</ele>
        <time>2021-12-20T13:22:53Z</time>
      </trkpt>
      <trkpt lat="43.0319" lon="-1.03576">
        <ele>1379.15</ele>
        <time>2021-12-20T13:23:06Z</time>
      </trkpt>
      <trkpt lat="43.03191" lon="-1.03576">
        <ele>1379.09</ele>
        <time>2021-12-20T13:23:07Z</time>
      </trkpt>
      <trkpt lat="43.032" lon="-1.03586">
        <ele>1378.86</ele>
        <time>2021-12-20T13:23:19Z</time>
      </trkpt>
      <trkpt lat="43.03201" lon="-1.0359">
        <ele>1378.63</ele>
        <time>2021-12-20T13:23:24Z</time>
      </trkpt>
      <trkpt lat="43.03209" lon="-1.036">
        <ele>1378.47</ele>
        <time>2021-12-20T13:23:36Z</time>
      </trkpt>
      <trkpt lat="43.0321" lon="-1.03603">
        <ele>1378.5</ele>
        <time>2021-12-20T13:23:38Z</time>
      </trkpt>
      <trkpt lat="43.03213" lon="-1.03606">
        <ele>1378.06</ele>
        <time>2021-12-20T13:23:42Z</time>
      </trkpt>
      <trkpt lat="43.03217" lon="-1.03616">
        <ele>1377.25</ele>
        <time>2021-12-20T13:23:54Z</time>
      </trkpt>
      <trkpt lat="43.03218" lon="-1.03618">
        <ele>1377.41</ele>
        <time>2021-12-20T13:23:56Z</time>
      </trkpt>
      <trkpt lat="43.03219" lon="-1.03622">
        <ele>1377.44</ele>
        <time>2021-12-20T13:24:01Z</time>
      </trkpt>
      <trkpt lat="43.0322" lon="-1.03625">
        <ele>1377.49</ele>
        <time>2021-12-20T13:24:04Z</time>
      </trkpt>
      <trkpt lat="43.03222" lon="-1.03635">
        <ele>1377.06</ele>
        <time>2021-12-20T13:24:13Z</time>
      </trkpt>
      <trkpt lat="43.03225" lon="-1.03642">
        <ele>1377.15</ele>
        <time>2021-12-20T13:24:21Z</time>
      </trkpt>
      <trkpt lat="43.03227" lon="-1.03651">
        <ele>1376.68</ele>
        <time>2021-12-20T13:24:32Z</time>
      </trkpt>
      <trkpt lat="43.03227" lon="-1.03655">
        <ele>1376.26</ele>
        <time>2021-12-20T13:24:37Z</time>
      </trkpt>
      <trkpt lat="43.03227" lon="-1.03666">
        <ele>1375.61</ele>
        <time>2021-12-20T13:24:53Z</time>
      </trkpt>
      <trkpt lat="43.03228" lon="-1.03673">
        <ele>1375.97</ele>
        <time>2021-12-20T13:25:05Z</time>
      </trkpt>
      <trkpt lat="43.03232" lon="-1.03684">
        <ele>1375.77</ele>
        <time>2021-12-20T13:25:16Z</time>
      </trkpt>
      <trkpt lat="43.03234" lon="-1.03691">
        <ele>1375.48</ele>
        <time>2021-12-20T13:25:25Z</time>
      </trkpt>
      <trkpt lat="43.03237" lon="-1.03702">
        <ele>1375.32</ele>
        <time>2021-12-20T13:25:36Z</time>
      </trkpt>
      <trkpt lat="43.03238" lon="-1.03704">
        <ele>1375.31</ele>
        <time>2021-12-20T13:25:38Z</time>
      </trkpt>
      <trkpt lat="43.03238" lon="-1.03707">
        <ele>1375.41</ele>
        <time>2021-12-20T13:25:40Z</time>
      </trkpt>
      <trkpt lat="43.03241" lon="-1.03711">
        <ele>1375.41</ele>
        <time>2021-12-20T13:25:47Z</time>
      </trkpt>
      <trkpt lat="43.03251" lon="-1.0373">
        <ele>1375.36</ele>
        <time>2021-12-20T13:25:59Z</time>
      </trkpt>
      <trkpt lat="43.03253" lon="-1.03735">
        <ele>1375.04</ele>
        <time>2021-12-20T13:26:02Z</time>
      </trkpt>
      <trkpt lat="43.03261" lon="-1.03754">
        <ele>1375.15</ele>
        <time>2021-12-20T13:26:16Z</time>
      </trkpt>
      <trkpt lat="43.03266" lon="-1.03763">
        <ele>1375.04</ele>
        <time>2021-12-20T13:26:29Z</time>
      </trkpt>
      <trkpt lat="43.03268" lon="-1.0376">
        <ele>1375.24</ele>
        <time>2021-12-20T13:26:46Z</time>
      </trkpt>
      <trkpt lat="43.03266" lon="-1.0376">
        <ele>1374.97</ele>
        <time>2021-12-20T13:27:14Z</time>
      </trkpt>
      <trkpt lat="43.03263" lon="-1.03764">
        <ele>1374.81</ele>
        <time>2021-12-20T13:27:41Z</time>
      </trkpt>
      <trkpt lat="43.03266" lon="-1.0377">
        <ele>1375.12</ele>
        <time>2021-12-20T13:28:00Z</time>
      </trkpt>
      <trkpt lat="43.03263" lon="-1.03766">
        <ele>1374.54</ele>
        <time>2021-12-20T13:28:29Z</time>
      </trkpt>
      <trkpt lat="43.03261" lon="-1.03761">
        <ele>1374.95</ele>
        <time>2021-12-20T13:28:44Z</time>
      </trkpt>
      <trkpt lat="43.03264" lon="-1.03761">
        <ele>1374.88</ele>
        <time>2021-12-20T13:29:03Z</time>
      </trkpt>
      <trkpt lat="43.03263" lon="-1.03762">
        <ele>1375.17</ele>
        <time>2021-12-20T13:29:26Z</time>
      </trkpt>
      <trkpt lat="43.03265" lon="-1.03766">
        <ele>1374.96</ele>
        <time>2021-12-20T13:29:42Z</time>
      </trkpt>
      <trkpt lat="43.03271" lon="-1.0378">
        <ele>1374.63</ele>
        <time>2021-12-20T13:29:55Z</time>
      </trkpt>
      <trkpt lat="43.03278" lon="-1.0379">
        <ele>1374.16</ele>
        <time>2021-12-20T13:30:08Z</time>
      </trkpt>
      <trkpt lat="43.03282" lon="-1.03802">
        <ele>1373.62</ele>
        <time>2021-12-20T13:30:20Z</time>
      </trkpt>
      <trkpt lat="43.03286" lon="-1.0381">
        <ele>1373.74</ele>
        <time>2021-12-20T13:30:27Z</time>
      </trkpt>
      <trkpt lat="43.0329" lon="-1.03819">
        <ele>1374.22</ele>
        <time>2021-12-20T13:30:42Z</time>
      </trkpt>
      <trkpt lat="43.03295" lon="-1.03828">
        <ele>1373.94</ele>
        <time>2021-12-20T13:31:03Z</time>
      </trkpt>
      <trkpt lat="43.03298" lon="-1.03836">
        <ele>1374.25</ele>
        <time>2021-12-20T13:31:10Z</time>
      </trkpt>
      <trkpt lat="43.03297" lon="-1.03838">
        <ele>1373.66</ele>
        <time>2021-12-20T13:31:27Z</time>
      </trkpt>
      <trkpt lat="43.03303" lon="-1.03846">
        <ele>1374.39</ele>
        <time>2021-12-20T13:31:49Z</time>
      </trkpt>
      <trkpt lat="43.03312" lon="-1.03863">
        <ele>1373.85</ele>
        <time>2021-12-20T13:32:09Z</time>
      </trkpt>
      <trkpt lat="43.0332" lon="-1.03878">
        <ele>1373.29</ele>
        <time>2021-12-20T13:32:27Z</time>
      </trkpt>
      <trkpt lat="43.03326" lon="-1.03887">
        <ele>1373.07</ele>
        <time>2021-12-20T13:32:38Z</time>
      </trkpt>
      <trkpt lat="43.0333" lon="-1.03889">
        <ele>1373.03</ele>
        <time>2021-12-20T13:32:43Z</time>
      </trkpt>
      <trkpt lat="43.03335" lon="-1.03892">
        <ele>1372.3</ele>
        <time>2021-12-20T13:32:51Z</time>
      </trkpt>
      <trkpt lat="43.03346" lon="-1.0389">
        <ele>1371.38</ele>
        <time>2021-12-20T13:33:04Z</time>
      </trkpt>
      <trkpt lat="43.03355" lon="-1.03887">
        <ele>1370.36</ele>
        <time>2021-12-20T13:33:21Z</time>
      </trkpt>
      <trkpt lat="43.03364" lon="-1.03885">
        <ele>1368.98</ele>
        <time>2021-12-20T13:33:35Z</time>
      </trkpt>
      <trkpt lat="43.03366" lon="-1.03884">
        <ele>1368.84</ele>
        <time>2021-12-20T13:33:38Z</time>
      </trkpt>
      <trkpt lat="43.03375" lon="-1.0388">
        <ele>1367.81</ele>
        <time>2021-12-20T13:33:52Z</time>
      </trkpt>
      <trkpt lat="43.03383" lon="-1.03873">
        <ele>1365.92</ele>
        <time>2021-12-20T13:34:08Z</time>
      </trkpt>
      <trkpt lat="43.03389" lon="-1.03869">
        <ele>1365.41</ele>
        <time>2021-12-20T13:34:19Z</time>
      </trkpt>
      <trkpt lat="43.03393" lon="-1.03865">
        <ele>1364.59</ele>
        <time>2021-12-20T13:34:35Z</time>
      </trkpt>
      <trkpt lat="43.03398" lon="-1.03856">
        <ele>1363.82</ele>
        <time>2021-12-20T13:34:50Z</time>
      </trkpt>
      <trkpt lat="43.03405" lon="-1.03848">
        <ele>1362.58</ele>
        <time>2021-12-20T13:35:04Z</time>
      </trkpt>
      <trkpt lat="43.03413" lon="-1.03839">
        <ele>1361.51</ele>
        <time>2021-12-20T13:35:18Z</time>
      </trkpt>
      <trkpt lat="43.03415" lon="-1.03837">
        <ele>1361.33</ele>
        <time>2021-12-20T13:35:21Z</time>
      </trkpt>
      <trkpt lat="43.03417" lon="-1.03833">
        <ele>1361.07</ele>
        <time>2021-12-20T13:35:25Z</time>
      </trkpt>
      <trkpt lat="43.03424" lon="-1.03819">
        <ele>1359.62</ele>
        <time>2021-12-20T13:35:43Z</time>
      </trkpt>
      <trkpt lat="43.03428" lon="-1.0381">
        <ele>1358.54</ele>
        <time>2021-12-20T13:35:57Z</time>
      </trkpt>
      <trkpt lat="43.03437" lon="-1.03799">
        <ele>1357.29</ele>
        <time>2021-12-20T13:36:14Z</time>
      </trkpt>
      <trkpt lat="43.03438" lon="-1.03798">
        <ele>1357.06</ele>
        <time>2021-12-20T13:36:17Z</time>
      </trkpt>
      <trkpt lat="43.03446" lon="-1.03789">
        <ele>1356.66</ele>
        <time>2021-12-20T13:36:30Z</time>
      </trkpt>
      <trkpt lat="43.0345" lon="-1.03776">
        <ele>1355.19</ele>
        <time>2021-12-20T13:36:44Z</time>
      </trkpt>
      <trkpt lat="43.03456" lon="-1.0376">
        <ele>1353.68</ele>
        <time>2021-12-20T13:37:03Z</time>
      </trkpt>
      <trkpt lat="43.03463" lon="-1.03751">
        <ele>1352.09</ele>
        <time>2021-12-20T13:37:22Z</time>
      </trkpt>
      <trkpt lat="43.0347" lon="-1.0374">
        <ele>1351.13</ele>
        <time>2021-12-20T13:37:38Z</time>
      </trkpt>
      <trkpt lat="43.03478" lon="-1.03726">
        <ele>1349.91</ele>
        <time>2021-12-20T13:37:54Z</time>
      </trkpt>
      <trkpt lat="43.03486" lon="-1.03714">
        <ele>1348.98</ele>
        <time>2021-12-20T13:38:10Z</time>
      </trkpt>
      <trkpt lat="43.03486" lon="-1.03709">
        <ele>1348.29</ele>
        <time>2021-12-20T13:38:17Z</time>
      </trkpt>
      <trkpt lat="43.03493" lon="-1.03696">
        <ele>1347.35</ele>
        <time>2021-12-20T13:38:29Z</time>
      </trkpt>
      <trkpt lat="43.03502" lon="-1.0368">
        <ele>1345.87</ele>
        <time>2021-12-20T13:38:49Z</time>
      </trkpt>
      <trkpt lat="43.03514" lon="-1.03666">
        <ele>1344.13</ele>
        <time>2021-12-20T13:39:07Z</time>
      </trkpt>
      <trkpt lat="43.0352" lon="-1.03655">
        <ele>1342.45</ele>
        <time>2021-12-20T13:39:21Z</time>
      </trkpt>
      <trkpt lat="43.03524" lon="-1.0365">
        <ele>1341.91</ele>
        <time>2021-12-20T13:39:29Z</time>
      </trkpt>
      <trkpt lat="43.03531" lon="-1.0364">
        <ele>1341.09</ele>
        <time>2021-12-20T13:39:43Z</time>
      </trkpt>
      <trkpt lat="43.03539" lon="-1.03629">
        <ele>1339.97</ele>
        <time>2021-12-20T13:39:59Z</time>
      </trkpt>
      <trkpt lat="43.03544" lon="-1.03616">
        <ele>1338.71</ele>
        <time>2021-12-20T13:40:12Z</time>
      </trkpt>
      <trkpt lat="43.03547" lon="-1.03611">
        <ele>1337.78</ele>
        <time>2021-12-20T13:40:20Z</time>
      </trkpt>
      <trkpt lat="43.03553" lon="-1.03601">
        <ele>1336.52</ele>
        <time>2021-12-20T13:40:32Z</time>
      </trkpt>
      <trkpt lat="43.03554" lon="-1.03601">
        <ele>1336.45</ele>
        <time>2021-12-20T13:40:33Z</time>
      </trkpt>
      <trkpt lat="43.03563" lon="-1.0359">
        <ele>1335.49</ele>
        <time>2021-12-20T13:40:49Z</time>
      </trkpt>
      <trkpt lat="43.03572" lon="-1.0358">
        <ele>1333.93</ele>
        <time>2021-12-20T13:41:05Z</time>
      </trkpt>
      <trkpt lat="43.03578" lon="-1.03574">
        <ele>1332.82</ele>
        <time>2021-12-20T13:41:20Z</time>
      </trkpt>
      <trkpt lat="43.03577" lon="-1.03575">
        <ele>1331.99</ele>
        <time>2021-12-20T13:41:22Z</time>
      </trkpt>
      <trkpt lat="43.03583" lon="-1.03566">
        <ele>1329.39</ele>
        <time>2021-12-20T13:41:44Z</time>
      </trkpt>
      <trkpt lat="43.03584" lon="-1.03565">
        <ele>1330.28</ele>
        <time>2021-12-20T13:41:45Z</time>
      </trkpt>
      <trkpt lat="43.03585" lon="-1.03564">
        <ele>1335.06</ele>
        <time>2021-12-20T13:41:46Z</time>
      </trkpt>
      <trkpt lat="43.03585" lon="-1.03563">
        <ele>1332.33</ele>
        <time>2021-12-20T13:41:47Z</time>
      </trkpt>
      <trkpt lat="43.03593" lon="-1.03554">
        <ele>1330.33</ele>
        <time>2021-12-20T13:42:01Z</time>
      </trkpt>
      <trkpt lat="43.03601" lon="-1.03543">
        <ele>1328.98</ele>
        <time>2021-12-20T13:42:18Z</time>
      </trkpt>
      <trkpt lat="43.03605" lon="-1.03536">
        <ele>1328.32</ele>
        <time>2021-12-20T13:42:27Z</time>
      </trkpt>
      <trkpt lat="43.03607" lon="-1.03534">
        <ele>1328.13</ele>
        <time>2021-12-20T13:42:30Z</time>
      </trkpt>
      <trkpt lat="43.03614" lon="-1.03521">
        <ele>1326.59</ele>
        <time>2021-12-20T13:42:44Z</time>
      </trkpt>
      <trkpt lat="43.03618" lon="-1.03513">
        <ele>1325.86</ele>
        <time>2021-12-20T13:42:59Z</time>
      </trkpt>
      <trkpt lat="43.0362" lon="-1.03504">
        <ele>1324.95</ele>
        <time>2021-12-20T13:43:16Z</time>
      </trkpt>
      <trkpt lat="43.03629" lon="-1.03491">
        <ele>1323.46</ele>
        <time>2021-12-20T13:43:34Z</time>
      </trkpt>
      <trkpt lat="43.03636" lon="-1.03477">
        <ele>1322.19</ele>
        <time>2021-12-20T13:43:53Z</time>
      </trkpt>
      <trkpt lat="43.03641" lon="-1.03472">
        <ele>1321.36</ele>
        <time>2021-12-20T13:44:01Z</time>
      </trkpt>
      <trkpt lat="43.03643" lon="-1.03469">
        <ele>1320.98</ele>
        <time>2021-12-20T13:44:04Z</time>
      </trkpt>
      <trkpt lat="43.03645" lon="-1.03468">
        <ele>1321.11</ele>
        <time>2021-12-20T13:44:08Z</time>
      </trkpt>
      <trkpt lat="43.03654" lon="-1.03465">
        <ele>1320.57</ele>
        <time>2021-12-20T13:44:21Z</time>
      </trkpt>
      <trkpt lat="43.03667" lon="-1.03473">
        <ele>1320.5</ele>
        <time>2021-12-20T13:44:42Z</time>
      </trkpt>
      <trkpt lat="43.03668" lon="-1.03491">
        <ele>1320.35</ele>
        <time>2021-12-20T13:44:57Z</time>
      </trkpt>
      <trkpt lat="43.03668" lon="-1.03499">
        <ele>1319.15</ele>
        <time>2021-12-20T13:45:12Z</time>
      </trkpt>
      <trkpt lat="43.03667" lon="-1.035">
        <ele>1316.88</ele>
        <time>2021-12-20T13:45:17Z</time>
      </trkpt>
      <trkpt lat="43.03667" lon="-1.035">
        <ele>1320.14</ele>
        <time>2021-12-20T13:45:21Z</time>
      </trkpt>
      <trkpt lat="43.03667" lon="-1.03501">
        <ele>1325.28</ele>
        <time>2021-12-20T13:45:22Z</time>
      </trkpt>
      <trkpt lat="43.03666" lon="-1.03501">
        <ele>1324.53</ele>
        <time>2021-12-20T13:45:23Z</time>
      </trkpt>
      <trkpt lat="43.03667" lon="-1.03501">
        <ele>1320.25</ele>
        <time>2021-12-20T13:45:25Z</time>
      </trkpt>
      <trkpt lat="43.03666" lon="-1.035">
        <ele>1319.62</ele>
        <time>2021-12-20T13:45:44Z</time>
      </trkpt>
      <trkpt lat="43.03669" lon="-1.035">
        <ele>1320.14</ele>
        <time>2021-12-20T13:46:02Z</time>
      </trkpt>
      <trkpt lat="43.03674" lon="-1.03511">
        <ele>1318.87</ele>
        <time>2021-12-20T13:46:21Z</time>
      </trkpt>
      <trkpt lat="43.03678" lon="-1.03524">
        <ele>1318.66</ele>
        <time>2021-12-20T13:46:38Z</time>
      </trkpt>
      <trkpt lat="43.03681" lon="-1.03528">
        <ele>1318.37</ele>
        <time>2021-12-20T13:46:59Z</time>
      </trkpt>
      <trkpt lat="43.03682" lon="-1.03528">
        <ele>1318.39</ele>
        <time>2021-12-20T13:47:23Z</time>
      </trkpt>
      <trkpt lat="43.03681" lon="-1.03529">
        <ele>1317.78</ele>
        <time>2021-12-20T13:47:41Z</time>
      </trkpt>
      <trkpt lat="43.03682" lon="-1.03529">
        <ele>1317.97</ele>
        <time>2021-12-20T13:48:00Z</time>
      </trkpt>
      <trkpt lat="43.03682" lon="-1.03529">
        <ele>1317.65</ele>
        <time>2021-12-20T13:48:24Z</time>
      </trkpt>
      <trkpt lat="43.0368" lon="-1.03527">
        <ele>1317.64</ele>
        <time>2021-12-20T13:48:43Z</time>
      </trkpt>
      <trkpt lat="43.03678" lon="-1.03528">
        <ele>1317.43</ele>
        <time>2021-12-20T13:49:12Z</time>
      </trkpt>
      <trkpt lat="43.03679" lon="-1.0353">
        <ele>1316.65</ele>
        <time>2021-12-20T13:49:34Z</time>
      </trkpt>
      <trkpt lat="43.03681" lon="-1.03529">
        <ele>1316.78</ele>
        <time>2021-12-20T13:49:36Z</time>
      </trkpt>
      <trkpt lat="43.03679" lon="-1.03523">
        <ele>1316.55</ele>
        <time>2021-12-20T13:50:06Z</time>
      </trkpt>
      <trkpt lat="43.03679" lon="-1.03527">
        <ele>1316</ele>
        <time>2021-12-20T13:50:34Z</time>
      </trkpt>
      <trkpt lat="43.0368" lon="-1.03526">
        <ele>1316.14</ele>
        <time>2021-12-20T13:51:01Z</time>
      </trkpt>
      <trkpt lat="43.03679" lon="-1.03527">
        <ele>1315.98</ele>
        <time>2021-12-20T13:51:27Z</time>
      </trkpt>
      <trkpt lat="43.0368" lon="-1.03527">
        <ele>1315.9</ele>
        <time>2021-12-20T13:51:47Z</time>
      </trkpt>
      <trkpt lat="43.03679" lon="-1.03525">
        <ele>1315.93</ele>
        <time>2021-12-20T13:52:15Z</time>
      </trkpt>
      <trkpt lat="43.03677" lon="-1.03526">
        <ele>1316.19</ele>
        <time>2021-12-20T13:52:35Z</time>
      </trkpt>
      <trkpt lat="43.0368" lon="-1.03528">
        <ele>1315.41</ele>
        <time>2021-12-20T13:53:08Z</time>
      </trkpt>
      <trkpt lat="43.03678" lon="-1.03527">
        <ele>1315.97</ele>
        <time>2021-12-20T13:53:27Z</time>
      </trkpt>
      <trkpt lat="43.0368" lon="-1.03528">
        <ele>1315.89</ele>
        <time>2021-12-20T13:53:45Z</time>
      </trkpt>
      <trkpt lat="43.03679" lon="-1.03531">
        <ele>1315.78</ele>
        <time>2021-12-20T13:54:06Z</time>
      </trkpt>
      <trkpt lat="43.03677" lon="-1.03531">
        <ele>1315.79</ele>
        <time>2021-12-20T13:54:24Z</time>
      </trkpt>
      <trkpt lat="43.03676" lon="-1.03531">
        <ele>1315.96</ele>
        <time>2021-12-20T13:54:54Z</time>
      </trkpt>
      <trkpt lat="43.03678" lon="-1.03529">
        <ele>1315.78</ele>
        <time>2021-12-20T13:55:20Z</time>
      </trkpt>
      <trkpt lat="43.03679" lon="-1.03527">
        <ele>1316.01</ele>
        <time>2021-12-20T13:55:40Z</time>
      </trkpt>
      <trkpt lat="43.0368" lon="-1.03527">
        <ele>1315.71</ele>
        <time>2021-12-20T13:56:20Z</time>
      </trkpt>
    </trkseg>
  </trk>
</gpx>